Data for 01/02/2009

Time Sea-Level Adjusted Pressure Absolute Pressure Temperature Relative Humidity Dew Point Precipitation   
(mb) (inHg) (mb) (inHg) (C) (F) (%) (C) (F) (mm) (in)
00:01 1002 29.59 831 24.54 3.3 37.9 67 -2.2 28.1 0
00:02 1002 29.59 831 24.54 3.5 38.3 64 -2.7 27.2 0
00:03 1002 29.59 831 24.54 3.8 38.8 65 -2.1 28.2 0
00:04 1002 29.59 831 24.54 3.7 38.7 67 -1.9 28.6 0
00:05 1002 29.59 831 24.54 3.5 38.3 67 -2.1 28.3 0
00:06 1002 29.59 831 24.54 3.4 38.1 68 -2 28.4 0
00:07 1002 29.59 831 24.54 3.4 38.1 67 -2.1 28.2 0
00:08 1002 29.59 831 24.54 3.3 37.9 68 -2 28.4 0
00:09 1002 29.59 831 24.54 3.2 37.8 68 -2 28.4 0
00:10 1002 29.59 831 24.54 3.2 37.7 69 -1.9 28.6 0
00:11 1002 29.59 831 24.54 3.1 37.5 69 -2 28.4 0
00:12 1002 29.59 831 24.54 3 37.4 70 -1.9 28.5 0
00:13 1002 29.59 831 24.54 3 37.4 70 -2 28.5 0
00:14 1002 29.59 831 24.54 2.9 37.3 70 -2 28.5 0
00:15 1002 29.59 831 24.54 2.9 37.2 71 -1.8 28.7 0
00:16 1002 29.59 831 24.54 2.8 37.1 72 -1.7 28.9 0
00:17 1002 29.59 831 24.54 2.7 36.9 73 -1.7 29 0
00:18 1002 29.59 831 24.54 2.6 36.7 72 -1.9 28.7 0
00:19 1002 29.59 831 24.54 2.6 36.7 72 -1.9 28.5 0
00:20 1002 29.59 831 24.54 2.7 36.8 72 -2 28.4 0
00:21 1002 29.59 831 24.54 2.7 36.8 72 -1.9 28.6 0
00:22 1002 29.59 831 24.54 2.6 36.8 73 -1.8 28.8 0
00:23 1002 29.59 831 24.54 2.6 36.6 73 -1.9 28.6 0
00:24 1002 29.59 831 24.54 2.5 36.6 73 -1.8 28.8 0
00:25 1002 29.59 831 24.54 2.5 36.5 73 -1.8 28.8 0
00:26 1002 29.59 831 24.54 2.4 36.4 73 -1.9 28.6 0
00:27 1002 29.59 831 24.54 2.4 36.4 74 -1.8 28.8 0
00:28 1002 29.59 831 24.54 2.5 36.4 73 -1.8 28.7 0
00:29 1002 29.59 831 24.54 2.4 36.3 74 -1.8 28.8 0
00:30 1002 29.59 831 24.54 2.4 36.4 73 -1.8 28.7 0
00:31 1002 29.59 831 24.54 2.4 36.3 74 -1.8 28.8 0
00:32 1002 29.59 831 24.54 2.4 36.3 74 -1.9 28.6 0
00:33 1001 29.56 831 24.54 2.4 36.2 74 -1.8 28.8 0
00:34 1001 29.56 831 24.54 2.4 36.3 74 -1.8 28.8 0
00:35 1001 29.56 831 24.54 2.3 36.2 73 -2 28.5 0
00:36 1001 29.56 831 24.54 2.4 36.3 73 -1.9 28.6 0
00:37 1001 29.56 831 24.54 2.4 36.4 73 -1.9 28.6 0
00:38 1001 29.56 831 24.54 2.4 36.4 73 -1.9 28.6 0
00:39 1001 29.56 831 24.54 2.5 36.5 73 -1.9 28.5 0
00:40 1001 29.56 831 24.54 2.5 36.5 73 -1.8 28.7 0
00:41 1001 29.56 831 24.54 2.5 36.5 73 -1.8 28.7 0
00:42 1001 29.56 831 24.54 2.5 36.4 73 -1.9 28.6 0
00:43 1001 29.56 831 24.54 2.5 36.5 72 -2 28.4 0
00:44 1001 29.56 831 24.54 2.5 36.5 72 -2 28.4 0
00:45 1001 29.56 830 24.51 2.5 36.6 72 -2.1 28.3 0
00:46 1001 29.56 830 24.51 2.6 36.7 71 -2.1 28.3 0
00:47 1001 29.56 830 24.51 2.7 36.8 71 -2 28.4 0
00:48 1001 29.56 830 24.51 2.7 36.8 71 -2 28.4 0
00:49 1001 29.56 830 24.51 2.6 36.8 72 -2 28.5 0
00:50 1001 29.56 830 24.51 2.6 36.7 71 -2 28.3 0
00:51 1001 29.56 830 24.51 2.6 36.7 72 -2 28.4 0
00:52 1001 29.56 830 24.51 2.6 36.7 71 -2 28.4 0
00:53 1001 29.56 830 24.51 2.6 36.7 72 -2 28.3 0
00:54 1001 29.56 830 24.51 2.6 36.7 71 -2.1 28.3 0
00:55 1001 29.56 830 24.51 2.6 36.7 71 -2 28.3 0
00:56 1001 29.56 830 24.51 2.6 36.7 71 -2.1 28.3 0
00:57 1001 29.56 830 24.51 2.6 36.7 71 -2.1 28.2 0
00:58 1001 29.56 830 24.51 2.6 36.7 71 -2.1 28.3 0
00:59 1001 29.56 830 24.51 2.6 36.8 72 -1.8 28.7 0
01:00 1001 29.56 830 24.51 2.5 36.5 73 -1.8 28.8 0
01:01 1001 29.56 830 24.51 2.3 36.2 75 -1.7 29 0
01:02 1001 29.56 830 24.51 2.1 35.8 75 -1.8 28.8 0
01:03 1001 29.56 830 24.51 2.1 35.7 76 -1.7 28.9 0
01:04 1001 29.56 830 24.51 2 35.5 77 -1.7 28.9 0
01:05 1001 29.56 830 24.51 1.8 35.3 76 -1.9 28.6 0
01:06 1001 29.56 830 24.51 1.9 35.4 75 -2 28.4 0
01:07 1001 29.56 830 24.51 2 35.6 74 -2.1 28.3 0
01:08 1001 29.56 830 24.51 2.1 35.9 74 -2.1 28.3 0
01:09 1001 29.56 830 24.51 2.2 36 73 -2.2 28.1 0
01:10 1001 29.56 830 24.51 2.4 36.3 71 -2.3 27.8 0
01:11 1001 29.56 830 24.51 2.5 36.5 71 -2.2 28.1 0
01:12 1001 29.56 830 24.51 2.6 36.7 70 -2.3 27.9 0
01:13 1001 29.56 830 24.51 2.6 36.8 70 -2.2 28 0
01:14 1001 29.56 830 24.51 2.6 36.7 71 -2.1 28.2 0
01:15 1001 29.56 830 24.51 2.5 36.6 71 -2.1 28.2 0
01:16 1001 29.56 830 24.51 2.5 36.4 72 -2.1 28.1 0
01:17 1001 29.56 830 24.51 2.4 36.4 72 -2.2 28.1 0
01:18 1001 29.56 830 24.51 2.4 36.4 71 -2.3 27.9 0
01:19 1001 29.56 830 24.51 2.5 36.5 72 -2.1 28.2 0
01:20 1001 29.56 830 24.51 2.4 36.2 72 -2.1 28.2 0
01:21 1001 29.56 830 24.51 2.2 36 73 -2.1 28.2 0
01:22 1001 29.56 830 24.51 2.1 35.7 73 -2.2 28 0
01:23 1001 29.56 830 24.51 2 35.6 73 -2.2 28 0
01:24 1001 29.56 830 24.51 2 35.6 74 -2.2 28 0
01:25 1001 29.56 830 24.51 2 35.7 73 -2.3 27.9 0
01:26 1001 29.56 830 24.51 2.1 35.7 73 -2.3 27.8 0
01:27 1001 29.56 830 24.51 2.2 35.9 72 -2.4 27.8 0
01:28 1001 29.56 830 24.51 2.3 36.1 71 -2.4 27.7 0
01:29 1001 29.56 830 24.51 2.4 36.2 71 -2.4 27.7 0
01:30 1001 29.56 830 24.51 2.3 36.2 71 -2.4 27.7 0
01:31 1001 29.56 830 24.51 2.1 35.7 73 -2.4 27.7 0
01:32 1001 29.56 830 24.51 2 35.7 73 -2.3 27.8 0
01:33 1001 29.56 830 24.51 2 35.7 73 -2.4 27.7 0
01:34 1001 29.56 830 24.51 2.1 35.8 72 -2.4 27.7 0
01:35 1001 29.56 830 24.51 2.1 35.9 72 -2.4 27.7 0
01:36 1001 29.56 830 24.51 2.2 35.9 71 -2.5 27.5 0
01:37 1001 29.56 830 24.51 2.1 35.7 72 -2.5 27.5 0
01:38 1001 29.56 830 24.51 2.1 35.7 72 -2.5 27.6 0
01:39 1001 29.56 830 24.51 2.1 35.7 72 -2.4 27.6 0
01:40 1001 29.56 830 24.51 2 35.7 72 -2.6 27.4 0
01:41 1001 29.56 830 24.51 2 35.7 71 -2.6 27.3 0
01:42 1001 29.56 830 24.51 1.9 35.4 73 -2.5 27.5 0
01:43 1001 29.56 830 24.51 1.8 35.3 73 -2.5 27.4 0
01:44 1001 29.56 830 24.51 1.7 35.1 73 -2.6 27.3 0
01:45 1001 29.56 830 24.51 1.5 34.7 72 -2.9 26.7 0
01:46 1001 29.56 830 24.51 1.1 34 76 -2.7 27.1 0
01:47 1001 29.56 830 24.51 0.8 33.5 76 -3 26.6 0
01:48 1000 29.53 830 24.51 0.7 33.3 76 -3 26.5 0
01:49 1000 29.53 830 24.51 0.7 33.3 77 -2.8 26.9 0
01:50 1000 29.53 830 24.51 0.7 33.2 78 -2.8 27 0
01:51 1000 29.53 830 24.51 0.8 33.5 76 -3 26.6 0
01:52 1000 29.53 830 24.51 0.9 33.6 75 -3 26.7 0
01:53 1000 29.53 830 24.51 0.8 33.4 76 -3 26.6 0
01:54 1000 29.53 830 24.51 0.6 33.1 78 -2.9 26.9 0
01:55 1000 29.53 830 24.51 0.6 33.2 77 -2.9 26.8 0
01:56 1000 29.53 830 24.51 0.7 33.2 75 -3.2 26.2 0
01:57 1000 29.53 830 24.51 0.5 33 77 -3 26.6 0
01:58 1000 29.53 829 24.48 0.7 33.3 77 -2.9 26.8 0
01:59 1000 29.53 829 24.48 1.1 33.9 74 -3.1 26.5 0
02:00 1000 29.53 829 24.48 1.2 34.2 73 -3 26.6 0
02:01 1000 29.53 830 24.51 1.1 34 73 -3.2 26.3 0
02:02 1000 29.53 830 24.51 0.8 33.5 76 -3 26.7 0
02:03 1000 29.53 830 24.51 0.7 33.3 76 -3.1 26.4 0
02:04 1000 29.53 830 24.51 0.8 33.4 75 -3.2 26.3 0
02:05 1000 29.53 830 24.51 0.7 33.3 75 -3.1 26.4 0
02:06 1000 29.53 830 24.51 0.8 33.4 77 -2.9 26.9 0
02:07 1000 29.53 830 24.51 1 33.8 74 -3.1 26.4 0
02:08 1000 29.53 829 24.48 1.1 34 74 -3 26.7 0
02:09 1000 29.53 829 24.48 1.3 34.3 73 -3.1 26.4 0
02:10 1000 29.53 829 24.48 1.4 34.5 73 -3 26.6 0
02:11 1000 29.53 830 24.51 1.6 35 71 -3 26.6 0
02:12 1000 29.53 830 24.51 1.8 35.3 70 -3 26.6 0
02:13 1000 29.53 829 24.48 1.9 35.4 69 -3.2 26.2 0
02:14 1000 29.53 829 24.48 1.6 34.9 71 -3.1 26.5 0
02:15 1000 29.53 829 24.48 1.3 34.3 73 -3.1 26.4 0
02:16 1000 29.53 829 24.48 1 33.9 74 -3.2 26.3 0
02:17 1000 29.53 829 24.48 1 33.8 73 -3.2 26.2 0
02:18 1000 29.53 829 24.48 1.1 34.1 72 -3.3 26 0
02:19 1000 29.53 829 24.48 1.4 34.5 70 -3.5 25.7 0
02:20 1000 29.53 829 24.48 1.5 34.8 69 -3.5 25.6 0
02:21 1000 29.53 829 24.48 1.5 34.8 69 -3.6 25.6 0
02:22 1000 29.53 829 24.48 1.5 34.7 70 -3.4 25.9 0
02:23 1000 29.53 829 24.48 1.7 35 68 -3.6 25.5 0
02:24 1000 29.53 830 24.51 2 35.6 64 -4.1 24.6 0
02:25 1000 29.53 830 24.51 2.7 36.8 62 -4 24.9 0
02:26 1000 29.53 830 24.51 3.1 37.7 60 -3.9 25 0
02:27 1000 29.53 830 24.51 3.5 38.2 59 -3.8 25.1 0
02:28 1000 29.53 829 24.48 3.7 38.6 59 -3.7 25.4 0
02:29 1000 29.53 829 24.48 3.7 38.6 59 -3.5 25.6 0
02:30 1000 29.53 830 24.51 3.6 38.6 59 -3.6 25.5 0
02:31 1000 29.53 829 24.48 3.6 38.5 60 -3.5 25.7 0
02:32 1000 29.53 829 24.48 3.4 38.2 60 -3.6 25.6 0
02:33 1000 29.53 829 24.48 3.2 37.8 62 -3.4 25.9 0
02:34 1000 29.53 829 24.48 3 37.4 63 -3.5 25.8 0
02:35 1000 29.53 829 24.48 2.7 36.9 65 -3.3 26.1 0
02:36 1000 29.53 829 24.48 2.4 36.4 66 -3.3 26.1 0
02:37 1000 29.53 829 24.48 2.4 36.3 66 -3.2 26.2 0
02:38 1000 29.53 829 24.48 2.3 36.2 66 -3.3 26 0
02:39 1000 29.53 829 24.48 2 35.6 68 -3.4 25.9 0
02:40 1000 29.53 829 24.48 1.5 34.7 71 -3.2 26.3 0
02:41 1000 29.53 829 24.48 1.5 34.6 69 -3.6 25.6 0
02:42 1000 29.53 829 24.48 1.4 34.5 70 -3.5 25.7 0
02:43 1000 29.53 829 24.48 1.1 34 71 -3.5 25.7 0
02:44 1000 29.53 829 24.48 1.5 34.6 66 -4.1 24.6 0
02:45 1000 29.53 829 24.48 2.2 35.9 65 -3.8 25.2 0
02:46 1000 29.53 829 24.48 2.5 36.5 65 -3.5 25.7 0
02:47 1000 29.53 829 24.48 2.6 36.7 64 -3.5 25.7 0
02:48 1000 29.53 829 24.48 2.6 36.6 65 -3.4 26 0
02:49 1000 29.53 829 24.48 2.5 36.6 65 -3.4 25.9 0
02:50 1000 29.53 829 24.48 2.5 36.5 65 -3.4 25.9 0
02:51 1000 29.53 829 24.48 2.5 36.5 66 -3.2 26.2 0
02:52 1000 29.53 830 24.51 2.5 36.4 65 -3.5 25.6 0
02:53 1000 29.53 830 24.51 2.6 36.7 63 -3.7 25.3 0
02:54 1000 29.53 830 24.51 2.7 36.9 63 -3.7 25.4 0
02:55 1000 29.53 830 24.51 2.9 37.3 62 -3.7 25.3 0
02:56 1000 29.53 830 24.51 3 37.4 63 -3.5 25.7 0
02:57 1000 29.53 830 24.51 2.8 37 63 -3.6 25.6 0
02:58 1000 29.53 830 24.51 2.7 36.8 64 -3.5 25.6 0
02:59 1000 29.53 830 24.51 2.5 36.5 64 -3.5 25.6 0
03:00 1000 29.53 830 24.51 2.3 36.1 65 -3.6 25.6 0
03:01 1000 29.53 830 24.51 2.2 35.9 66 -3.6 25.5 0
03:02 1000 29.53 829 24.48 2.1 35.8 66 -3.7 25.4 0
03:03 1000 29.53 829 24.48 2 35.6 66 -3.7 25.3 0
03:04 1000 29.53 829 24.48 2.1 35.7 65 -3.8 25.2 0
03:05 1000 29.53 829 24.48 2.3 36.2 64 -3.8 25.2 0
03:06 1000 29.53 829 24.48 2.5 36.5 64 -3.7 25.3 0
03:07 1000 29.53 829 24.48 2.6 36.7 63 -3.8 25.1 0
03:08 1000 29.53 829 24.48 2.2 36 65 -3.7 25.4 0
03:09 1000 29.53 829 24.48 2.2 36 65 -3.7 25.3 0
03:10 1000 29.53 829 24.48 2.3 36.2 64 -3.8 25.2 0
03:11 1000 29.53 829 24.48 2.4 36.3 64 -3.8 25.2 0
03:12 1000 29.53 829 24.48 2.3 36.1 62 -4.2 24.4 0
03:13 1000 29.53 829 24.48 1.9 35.5 62 -4.5 23.9 0
03:14 1000 29.53 829 24.48 1.4 34.6 67 -4.1 24.6 0
03:15 1000 29.53 829 24.48 1.3 34.3 68 -4 24.9 0
03:16 1000 29.53 829 24.48 1.4 34.5 67 -4.2 24.5 0
03:17 1000 29.53 829 24.48 1.3 34.4 67 -4.1 24.7 0
03:18 1000 29.53 829 24.48 1.5 34.8 65 -4.4 24 0
03:19 1000 29.53 829 24.48 1.2 34.2 67 -4.2 24.5 0
03:20 1000 29.53 829 24.48 0.8 33.4 69 -4.2 24.5 0
03:21 1000 29.53 829 24.48 0.8 33.4 68 -4.4 24.1 0
03:22 1000 29.53 829 24.48 1 33.8 66 -4.6 23.7 0
03:23 1000 29.53 829 24.48 1.7 35.1 60 -5.2 22.6 0
03:24 1000 29.53 829 24.48 2.8 37.1 55 -5.2 22.6 0
03:25 1000 29.53 829 24.48 3.6 38.5 53 -5.1 22.8 0
03:26 1000 29.53 829 24.48 4.1 39.3 52 -5 23 0
03:27 1000 29.53 829 24.48 4.4 40 51 -4.9 23.1 0
03:28 1000 29.53 829 24.48 4.7 40.5 50 -4.7 23.5 0
03:29 1000 29.53 829 24.48 5 41 50 -4.7 23.6 0
03:30 1000 29.53 829 24.48 5.3 41.5 49 -4.6 23.7 0
03:31 1000 29.53 829 24.48 5.4 41.8 49 -4.4 24 0
03:32 1000 29.53 829 24.48 5.5 41.9 48 -4.6 23.7 0
03:33 1000 29.53 829 24.48 5.8 42.5 49 -4 24.8 0
03:34 1000 29.53 829 24.48 5.9 42.7 47 -4.5 23.9 0
03:35 1000 29.53 829 24.48 6.3 43.3 45 -4.8 23.3 0
03:36 1000 29.53 829 24.48 6.7 44.1 44 -4.7 23.5 0
03:37 1000 29.53 829 24.48 6.9 44.4 47 -3.7 25.3 0
03:38 1000 29.53 829 24.48 6.7 44 47 -3.7 25.3 0
03:39 1000 29.53 829 24.48 6.4 43.6 47 -4 24.8 0
03:40 1000 29.53 829 24.48 6.5 43.6 47 -4 24.9 0
03:41 1000 29.53 829 24.48 6.4 43.6 45 -4.7 23.5 0
03:42 1000 29.53 829 24.48 6.7 44.1 46 -4.1 24.5 0
03:43 1000 29.53 829 24.48 6.8 44.2 45 -4.4 24 0
03:44 1000 29.53 829 24.48 6.9 44.4 45 -4.1 24.7 0
03:45 1000 29.53 829 24.48 6.8 44.3 46 -3.9 24.9 0
03:46 999 29.5 829 24.48 6.8 44.2 45 -4.4 24.1 0
03:47 999 29.5 829 24.48 6.9 44.4 45 -4.3 24.3 0
03:48 999 29.5 829 24.48 6.8 44.2 47 -3.9 25 0
03:49 999 29.5 828 24.45 6.5 43.7 49 -3.4 25.9 0
03:50 999 29.5 828 24.45 6.2 43.2 48 -4 24.8 0
03:51 999 29.5 828 24.45 6.3 43.3 48 -3.9 25 0
03:52 999 29.5 828 24.45 6.3 43.3 48 -3.9 24.9 0
03:53 999 29.5 828 24.45 6.4 43.4 45 -4.6 23.8 0
03:54 999 29.5 828 24.45 6.6 43.9 47 -3.9 25.1 0
03:55 999 29.5 828 24.45 6.7 44.1 47 -3.8 25.1 0
03:56 999 29.5 828 24.45 6.6 43.9 47 -3.9 25 0
03:57 999 29.5 828 24.45 6.6 43.8 47 -3.9 24.9 0
03:58 999 29.5 828 24.45 6.4 43.5 49 -3.6 25.6 0
03:59 999 29.5 828 24.45 6.2 43.2 49 -3.7 25.3 0
04:00 999 29.5 828 24.45 6.2 43.2 48 -3.9 24.9 0
04:01 999 29.5 828 24.45 6.3 43.3 48 -3.8 25.1 0
04:02 999 29.5 828 24.45 6.2 43.2 50 -3.5 25.6 0
04:03 999 29.5 828 24.45 6.2 43.1 48 -4.1 24.6 0
04:04 999 29.5 828 24.45 6.4 43.5 46 -4.4 24.1 0
04:05 999 29.5 828 24.45 6.5 43.7 49 -3.3 26 0
04:06 999 29.5 828 24.45 6.3 43.3 48 -3.8 25.2 0
04:07 999 29.5 828 24.45 6.2 43.1 49 -3.7 25.3 0
04:08 999 29.5 828 24.45 6.2 43.2 49 -3.7 25.3 0
04:09 999 29.5 828 24.45 6.3 43.4 47 -4 24.7 0
04:10 999 29.5 828 24.45 6.3 43.4 48 -4 24.8 0
04:11 999 29.5 828 24.45 6.3 43.4 49 -3.6 25.6 0
04:12 999 29.5 828 24.45 6.4 43.4 47 -4.1 24.7 0
04:13 999 29.5 828 24.45 6.4 43.6 48 -3.9 25 0
04:14 999 29.5 828 24.45 6.4 43.5 46 -4.4 24.1 0
04:15 999 29.5 828 24.45 6.6 43.8 46 -4.1 24.6 0
04:16 999 29.5 828 24.45 6.6 43.8 47 -4.1 24.7 0
04:17 999 29.5 828 24.45 6.5 43.7 48 -3.7 25.3 0
04:18 999 29.5 828 24.45 6.4 43.4 47 -4.1 24.6 0
04:19 999 29.5 828 24.45 6.4 43.6 48 -3.7 25.4 0
04:20 999 29.5 828 24.45 6.3 43.3 48 -3.8 25.2 0
04:21 999 29.5 828 24.45 6.3 43.3 48 -4 24.8 0
04:22 999 29.5 828 24.45 6.4 43.4 46 -4.5 23.9 0
04:23 999 29.5 828 24.45 6.5 43.7 47 -3.9 25 0
04:24 999 29.5 828 24.45 6.4 43.6 48 -3.8 25.1 0
04:25 998 29.47 828 24.45 6.2 43.1 50 -3.5 25.7 0
04:26 998 29.47 828 24.45 6.1 43 50 -3.5 25.7 0
04:27 998 29.47 828 24.45 6 42.8 51 -3.3 26 0
04:28 998 29.47 828 24.45 5.8 42.5 51 -3.6 25.5 0
04:29 998 29.47 828 24.45 5.8 42.4 50 -3.8 25.1 0
04:30 999 29.5 828 24.45 5.8 42.4 50 -3.9 25.1 0
04:31 998 29.47 828 24.45 5.8 42.4 51 -3.5 25.8 0
04:32 998 29.47 828 24.45 5.8 42.4 51 -3.5 25.7 0
04:33 999 29.5 828 24.45 5.8 42.4 50 -3.9 24.9 0
04:34 999 29.5 828 24.45 6 42.9 49 -3.9 25.1 0
04:35 999 29.5 828 24.45 6.3 43.3 48 -3.8 25.1 0
04:36 999 29.5 828 24.45 6.2 43.2 49 -3.6 25.5 0
04:37 999 29.5 828 24.45 6.2 43.1 49 -3.7 25.3 0
04:38 999 29.5 828 24.45 6.2 43.2 48 -3.8 25.1 0
04:39 999 29.5 828 24.45 6.2 43.1 49 -3.7 25.3 0
04:40 999 29.5 828 24.45 6.2 43.1 48 -4 24.7 0
04:41 999 29.5 828 24.45 6.3 43.3 48 -4 24.8 0
04:42 998 29.47 828 24.45 6.2 43.2 48 -4 24.8 0
04:43 998 29.47 828 24.45 6.2 43.2 48 -4 24.9 0
04:44 998 29.47 828 24.45 6.2 43.1 49 -3.7 25.4 0
04:45 999 29.5 828 24.45 6.3 43.3 47 -4.2 24.4 0
04:46 999 29.5 828 24.45 6.4 43.4 48 -4 24.9 0
04:47 999 29.5 828 24.45 6.4 43.6 47 -4 24.7 0
04:48 998 29.47 828 24.45 6.4 43.6 47 -4 24.8 0
04:49 998 29.47 828 24.45 6.4 43.5 49 -3.6 25.5 0
04:50 998 29.47 828 24.45 6.2 43.2 49 -3.7 25.3 0
04:51 999 29.5 828 24.45 6.3 43.3 46 -4.5 24 0
04:52 999 29.5 828 24.45 6.5 43.7 46 -4.4 24.1 0
04:53 998 29.47 828 24.45 6.6 43.9 47 -4 24.8 0
04:54 998 29.47 828 24.45 6.6 43.8 47 -4 24.8 0
04:55 998 29.47 828 24.45 6.5 43.7 47 -4 24.8 0
04:56 998 29.47 828 24.45 6.3 43.4 48 -3.8 25.1 0
04:57 998 29.47 828 24.45 6.2 43.2 47 -4.2 24.4 0
04:58 998 29.47 828 24.45 6.3 43.4 45 -4.6 23.7 0
04:59 998 29.47 828 24.45 6.4 43.6 48 -3.9 25.1 0
05:00 998 29.47 828 24.45 6.5 43.6 44 -4.8 23.3 0
05:01 998 29.47 828 24.45 6.7 44 45 -4.3 24.3 0
05:02 998 29.47 828 24.45 6.6 43.8 47 -4 24.7 0
05:03 998 29.47 827 24.42 6.4 43.5 48 -3.8 25.2 0
05:04 998 29.47 827 24.42 6.3 43.4 47 -4.3 24.2 0
05:05 998 29.47 827 24.42 6.3 43.3 48 -4 24.8 0
05:06 998 29.47 827 24.42 6.2 43.2 46 -4.6 23.8 0
05:07 998 29.47 828 24.45 6.3 43.4 48 -3.8 25.2 0
05:08 998 29.47 827 24.42 6.2 43.1 48 -4 24.8 0
05:09 998 29.47 828 24.45 6.2 43.2 46 -4.5 23.9 0
05:10 998 29.47 828 24.45 6.5 43.7 47 -4.1 24.6 0
05:11 998 29.47 828 24.45 6.5 43.6 46 -4.2 24.5 0
05:12 998 29.47 828 24.45 6.4 43.6 47 -4.1 24.6 0
05:13 998 29.47 828 24.45 6.5 43.6 46 -4.4 24.1 0
05:14 998 29.47 828 24.45 6.5 43.7 46 -4.3 24.2 0
05:15 998 29.47 828 24.45 6.7 44 46 -4.1 24.7 0
05:16 998 29.47 828 24.45 6.6 44 46 -4.1 24.6 0
05:17 998 29.47 827 24.42 6.5 43.7 47 -3.9 24.9 0
05:18 998 29.47 827 24.42 6.3 43.4 48 -4 24.9 0
05:19 998 29.47 827 24.42 6.4 43.5 47 -4.1 24.6 0
05:20 998 29.47 827 24.42 6.6 43.8 45 -4.7 23.6 0
05:21 998 29.47 827 24.42 6.6 43.8 46 -4.2 24.4 0
05:22 998 29.47 827 24.42 6.5 43.7 47 -4.1 24.6 0
05:23 998 29.47 827 24.42 6.5 43.6 48 -3.9 25 0
05:24 998 29.47 827 24.42 6.3 43.4 48 -4 24.8 0
05:25 998 29.47 827 24.42 6.2 43.1 47 -4.3 24.3 0
05:26 998 29.47 827 24.42 6.3 43.3 46 -4.5 23.9 0
05:27 998 29.47 827 24.42 6.5 43.6 48 -3.7 25.4 0
05:28 998 29.47 827 24.42 6.2 43.2 49 -3.6 25.5 0
05:29 998 29.47 827 24.42 6 42.9 49 -3.9 24.9 0
05:30 998 29.47 827 24.42 6 42.9 49 -3.9 25 0
05:31 998 29.47 827 24.42 6.1 42.9 48 -4.1 24.7 0
05:32 998 29.47 827 24.42 6.3 43.4 47 -4.1 24.6 0
05:33 998 29.47 827 24.42 6.3 43.3 47 -4.1 24.7 0
05:34 998 29.47 827 24.42 6.2 43.1 49 -3.8 25.2 0
05:35 998 29.47 827 24.42 6.1 43 49 -3.8 25.2 0
05:36 998 29.47 827 24.42 6.1 42.9 50 -3.5 25.7 0
05:37 998 29.47 827 24.42 5.9 42.6 49 -4 24.8 0
05:38 998 29.47 827 24.42 6 42.7 50 -3.6 25.5 0
05:39 998 29.47 827 24.42 6.1 43 48 -4.1 24.6 0
05:40 998 29.47 827 24.42 6.2 43.2 47 -4.1 24.6 0
05:41 998 29.47 827 24.42 6.3 43.4 48 -3.8 25.1 0
05:42 998 29.47 827 24.42 6.4 43.5 47 -4.1 24.6 0
05:43 998 29.47 827 24.42 6.5 43.7 45 -4.5 23.9 0
05:44 998 29.47 827 24.42 6.7 44 46 -4.2 24.4 0
05:45 998 29.47 827 24.42 6.7 44.1 44 -4.7 23.5 0
05:46 998 29.47 827 24.42 6.8 44.2 44 -4.7 23.6 0
05:47 998 29.47 827 24.42 6.8 44.2 44 -4.5 24 0
05:48 998 29.47 827 24.42 6.7 44.1 45 -4.2 24.4 0
05:49 998 29.47 827 24.42 6.6 43.8 46 -4.1 24.6 0
05:50 998 29.47 827 24.42 6.6 43.8 46 -4.4 24.1 0
05:51 998 29.47 827 24.42 6.8 44.2 47 -3.8 25.2 0
05:52 998 29.47 827 24.42 6.7 44.1 45 -4.5 23.9 0
05:53 998 29.47 827 24.42 6.7 44 46 -4 24.8 0
05:54 998 29.47 827 24.42 6.5 43.8 45 -4.6 23.8 0
05:55 998 29.47 827 24.42 6.6 43.8 46 -4.2 24.5 0
05:56 998 29.47 827 24.42 6.5 43.7 48 -3.7 25.3 0
05:57 998 29.47 827 24.42 6.3 43.3 49 -3.6 25.5 0
05:58 998 29.47 827 24.42 6.2 43.1 47 -4.3 24.3 0
05:59 998 29.47 827 24.42 6.4 43.4 45 -4.7 23.5 0
06:00 998 29.47 827 24.42 6.5 43.8 45 -4.5 23.8 0
06:01 998 29.47 827 24.42 6.7 44 43 -5.1 22.9 0
06:02 998 29.47 827 24.42 7 44.6 45 -4.3 24.3 0
06:03 998 29.47 827 24.42 6.9 44.5 43 -4.6 23.7 0
06:04 998 29.47 827 24.42 7 44.6 43 -4.6 23.7 0
06:05 998 29.47 827 24.42 6.9 44.5 41 -5.3 22.5 0
06:06 997 29.44 827 24.42 7 44.6 45 -4 24.8 0
06:07 997 29.44 827 24.42 6.9 44.5 46 -4 24.8 0
06:08 997 29.44 827 24.42 6.8 44.3 45 -4.1 24.5 0
06:09 998 29.47 827 24.42 6.8 44.2 46 -3.9 25 0
06:10 998 29.47 827 24.42 6.6 44 45 -4.4 24.1 0
06:11 998 29.47 827 24.42 6.6 43.9 44 -4.7 23.5 0
06:12 998 29.47 827 24.42 6.8 44.2 43 -4.9 23.2 0
06:13 998 29.47 827 24.42 6.9 44.5 46 -3.9 24.9 0
06:14 998 29.47 827 24.42 6.8 44.2 44 -4.5 23.9 0
06:15 998 29.47 827 24.42 6.9 44.5 45 -4.3 24.3 0
06:16 998 29.47 827 24.42 6.8 44.3 45 -4.3 24.3 0
06:17 998 29.47 827 24.42 6.7 44.1 46 -4 24.9 0
06:18 998 29.47 827 24.42 6.5 43.6 46 -4.3 24.3 0
06:19 998 29.47 827 24.42 6.5 43.6 48 -3.8 25.2 0
06:20 998 29.47 827 24.42 6.4 43.5 45 -4.6 23.8 0
06:21 998 29.47 827 24.42 6.4 43.6 48 -3.7 25.3 0
06:22 998 29.47 827 24.42 6.2 43.2 50 -3.3 26 0
06:23 998 29.47 827 24.42 6 42.8 49 -4 24.7 0
06:24 998 29.47 827 24.42 6.1 43 48 -4 24.8 0
06:25 998 29.47 827 24.42 6.2 43.1 49 -3.7 25.3 0
06:26 998 29.47 827 24.42 6 42.8 50 -3.7 25.3 0
06:27 998 29.47 827 24.42 5.9 42.7 49 -4.1 24.6 0
06:28 998 29.47 827 24.42 6 42.8 51 -3.5 25.7 0
06:29 998 29.47 827 24.42 6 42.8 47 -4.6 23.8 0
06:30 998 29.47 827 24.42 6.3 43.3 46 -4.6 23.7 0
06:31 998 29.47 827 24.42 6.5 43.7 46 -4.1 24.6 0
06:32 998 29.47 827 24.42 6.4 43.6 48 -3.7 25.4 0
06:33 998 29.47 827 24.42 6.2 43.1 49 -3.7 25.3 0
06:34 998 29.47 827 24.42 6.1 42.9 49 -3.9 24.9 0
06:35 998 29.47 827 24.42 6.1 43 50 -3.4 25.9 0
06:36 998 29.47 827 24.42 5.9 42.7 52 -3.2 26.2 0
06:37 998 29.47 827 24.42 5.7 42.3 51 -3.5 25.7 0
06:38 998 29.47 827 24.42 5.7 42.2 50 -4.1 24.7 0
06:39 998 29.47 827 24.42 5.8 42.5 50 -3.9 25 0
06:40 998 29.47 827 24.42 5.9 42.6 48 -4.3 24.3 0
06:41 998 29.47 827 24.42 6.1 43 48 -4 24.8 0
06:42 997 29.44 827 24.42 6.1 42.9 49 -3.7 25.3 0
06:43 997 29.44 827 24.42 6 42.8 50 -3.7 25.3 0
06:44 997 29.44 827 24.42 5.9 42.6 50 -3.6 25.5 0
06:45 997 29.44 827 24.42 5.8 42.4 50 -3.8 25.2 0
06:46 997 29.44 827 24.42 5.8 42.5 51 -3.5 25.7 0
06:47 997 29.44 827 24.42 5.7 42.2 52 -3.4 26 0
06:48 997 29.44 826 24.39 5.5 41.9 54 -3.1 26.4 0
06:49 997 29.44 826 24.39 5.3 41.6 54 -3.3 26 0
06:50 997 29.44 826 24.39 5.3 41.5 54 -3.3 26.1 0
06:51 997 29.44 826 24.39 5.2 41.4 53 -3.4 25.8 0
06:52 997 29.44 826 24.39 5.3 41.6 50 -4.2 24.4 0
06:53 997 29.44 826 24.39 5.6 42.1 51 -3.8 25.2 0
06:54 997 29.44 826 24.39 5.7 42.3 51 -3.7 25.3 0
06:55 997 29.44 826 24.39 5.8 42.4 48 -4.3 24.2 0
06:56 997 29.44 826 24.39 5.9 42.7 50 -3.7 25.4 0
06:57 997 29.44 826 24.39 5.8 42.5 49 -4 24.8 0
06:58 997 29.44 826 24.39 6.2 43.2 47 -4.3 24.3 0
06:59 997 29.44 826 24.39 6.4 43.6 48 -3.7 25.3 0
07:00 997 29.44 826 24.39 6.3 43.4 48 -3.7 25.3 0
07:01 997 29.44 826 24.39 6.3 43.3 49 -3.7 25.3 0
07:02 997 29.44 826 24.39 6.1 43.1 50 -3.4 25.8 0
07:03 997 29.44 826 24.39 5.9 42.6 52 -3.1 26.3 0
07:04 997 29.44 826 24.39 5.6 42 53 -3.4 26 0
07:05 997 29.44 826 24.39 5.4 41.8 52 -3.7 25.4 0
07:06 997 29.44 826 24.39 5.4 41.7 53 -3.4 25.9 0
07:07 997 29.44 826 24.39 5.3 41.5 54 -3.4 25.9 0
07:08 997 29.44 826 24.39 5.2 41.3 57 -2.7 27.1 0
07:09 997 29.44 826 24.39 4.8 40.7 57 -3 26.7 0
07:10 997 29.44 826 24.39 4.8 40.6 56 -3.3 26 0
07:11 997 29.44 826 24.39 4.9 40.7 54 -3.6 25.5 0
07:12 997 29.44 826 24.39 4.9 40.9 54 -3.5 25.6 0
07:13 996 29.41 826 24.39 5 41 54 -3.5 25.7 0
07:14 996 29.41 826 24.39 5.1 41.1 54 -3.5 25.7 0
07:15 996 29.41 826 24.39 5.1 41.1 54 -3.4 25.9 0
07:16 996 29.41 826 24.39 5.1 41.2 54 -3.4 25.8 0
07:17 997 29.44 826 24.39 5.2 41.3 55 -3.3 26.1 0
07:18 997 29.44 826 24.39 5.1 41.2 54 -3.3 26 0
07:19 997 29.44 826 24.39 5.3 41.5 52 -3.8 25.2 0
07:20 997 29.44 826 24.39 5.5 41.9 53 -3.3 26.1 0
07:21 997 29.44 826 24.39 5.4 41.7 55 -3 26.6 0
07:22 997 29.44 826 24.39 5.2 41.4 54 -3.3 26.1 0
07:23 997 29.44 826 24.39 5.2 41.3 56 -2.9 26.8 0
07:24 997 29.44 826 24.39 5 41 55 -3.2 26.3 0
07:25 997 29.44 826 24.39 5 41.1 55 -3.3 26.1 0
07:26 997 29.44 826 24.39 5.1 41.2 55 -3.1 26.4 0
07:27 997 29.44 826 24.39 5.1 41.2 55 -3.1 26.4 0
07:28 997 29.44 826 24.39 5 40.9 56 -3 26.6 0
07:29 997 29.44 826 24.39 4.9 40.7 57 -2.9 26.8 0
07:30 997 29.44 826 24.39 4.7 40.4 57 -3 26.5 0
07:31 997 29.44 826 24.39 4.6 40.3 58 -3 26.6 0
07:32 997 29.44 826 24.39 4.6 40.2 58 -3.1 26.5 0
07:33 997 29.44 826 24.39 4.6 40.2 57 -3.3 26.1 0
07:34 997 29.44 826 24.39 4.7 40.4 57 -3.1 26.4 0
07:35 997 29.44 826 24.39 4.8 40.6 55 -3.4 26 0
07:36 997 29.44 826 24.39 4.8 40.7 56 -3.2 26.2 0
07:37 997 29.44 826 24.39 4.9 40.8 55 -3.3 26 0
07:38 997 29.44 826 24.39 4.9 40.7 57 -3 26.6 0
07:39 997 29.44 826 24.39 4.7 40.5 57 -3 26.6 0
07:40 997 29.44 826 24.39 4.7 40.4 58 -3 26.6 0
07:41 997 29.44 826 24.39 4.7 40.5 57 -3 26.6 0
07:42 997 29.44 826 24.39 4.8 40.6 57 -3.1 26.3 0
07:43 997 29.44 826 24.39 4.8 40.7 56 -3.2 26.3 0
07:44 997 29.44 826 24.39 4.9 40.9 57 -3 26.7 0
07:45 996 29.41 826 24.39 4.9 40.8 56 -3.2 26.3 0
07:46 996 29.41 826 24.39 5 41 57 -2.8 26.9 0
07:47 996 29.41 826 24.39 5 40.9 56 -3 26.6 0
07:48 996 29.41 825 24.36 4.9 40.8 57 -3 26.7 0
07:49 996 29.41 825 24.36 4.8 40.7 58 -2.8 26.9 0
07:50 996 29.41 825 24.36 4.7 40.4 59 -2.7 27.2 0
07:51 996 29.41 825 24.36 4.5 40.1 59 -2.8 27 0
07:52 996 29.41 825 24.36 4.5 40 60 -2.7 27.2 0
07:53 996 29.41 826 24.39 4.4 39.9 60 -2.7 27.2 0
07:54 996 29.41 826 24.39 4.4 39.9 59 -2.8 26.9 0
07:55 996 29.41 826 24.39 4.5 40.1 58 -3.1 26.5 0
07:56 996 29.41 826 24.39 4.6 40.3 58 -3 26.6 0
07:57 996 29.41 825 24.36 4.7 40.4 58 -2.8 26.9 0
07:58 996 29.41 825 24.36 4.7 40.5 57 -3 26.6 0
07:59 996 29.41 825 24.36 4.8 40.6 58 -2.9 26.8 0
08:00 996 29.41 825 24.36 4.8 40.6 57 -3 26.6 0
08:01 996 29.41 825 24.36 4.7 40.5 57 -3.1 26.4 0
08:02 996 29.41 825 24.36 4.8 40.6 57 -3.1 26.5 0
08:03 996 29.41 825 24.36 4.9 40.8 56 -3 26.5 0
08:04 996 29.41 825 24.36 4.9 40.9 56 -3 26.6 0
08:05 996 29.41 825 24.36 4.8 40.7 58 -2.8 27 0
08:06 996 29.41 825 24.36 4.6 40.3 59 -2.7 27.1 0
08:07 996 29.41 825 24.36 4.5 40.2 60 -2.7 27.2 0
08:08 996 29.41 825 24.36 4.4 39.8 60 -2.7 27.1 0
08:09 996 29.41 825 24.36 4.3 39.7 61 -2.6 27.4 0
08:10 996 29.41 825 24.36 4.2 39.5 62 -2.5 27.5 0
08:11 996 29.41 825 24.36 4 39.2 63 -2.5 27.6 0
08:12 996 29.41 825 24.36 3.9 39.1 61 -2.8 26.9 0
08:13 996 29.41 825 24.36 4 39.2 62 -2.6 27.3 0
08:14 996 29.41 825 24.36 4 39.1 62 -2.7 27.1 0
08:15 996 29.41 825 24.36 4 39.2 61 -2.8 27 0
08:16 996 29.41 825 24.36 4 39.3 62 -2.6 27.4 0
08:17 996 29.41 825 24.36 4 39.2 62 -2.6 27.3 0
08:18 996 29.41 825 24.36 4 39.3 63 -2.5 27.6 0
08:19 996 29.41 825 24.36 4 39.2 63 -2.4 27.7 0
08:20 996 29.41 825 24.36 3.9 39.1 62 -2.7 27.1 0
08:21 996 29.41 825 24.36 4.1 39.3 62 -2.5 27.5 0
08:22 996 29.41 825 24.36 4.1 39.3 61 -2.7 27.2 0
08:23 996 29.41 825 24.36 4.2 39.6 60 -2.9 26.8 0
08:24 996 29.41 825 24.36 4.4 39.9 61 -2.4 27.7 0
08:25 996 29.41 825 24.36 4.2 39.5 62 -2.4 27.6 0
08:26 996 29.41 825 24.36 4.2 39.5 61 -2.6 27.3 0
08:27 996 29.41 825 24.36 4.2 39.6 60 -2.8 27 0
08:28 996 29.41 825 24.36 4.4 39.9 60 -2.6 27.3 0
08:29 996 29.41 825 24.36 4.5 40 60 -2.6 27.3 0
08:30 996 29.41 825 24.36 4.5 40 60 -2.7 27.1 0
08:31 996 29.41 825 24.36 4.5 40.1 60 -2.5 27.5 0
08:32 996 29.41 825 24.36 4.4 39.8 61 -2.6 27.4 0
08:33 996 29.41 825 24.36 4.2 39.6 63 -2.1 28.2 0
08:34 996 29.41 825 24.36 3.9 39.1 64 -2.2 28.1 0
08:35 996 29.41 825 24.36 3.7 38.7 65 -2.2 28 0
08:36 996 29.41 825 24.36 3.5 38.4 66 -2.3 27.9 0
08:37 996 29.41 825 24.36 3.5 38.2 66 -2.3 27.8 0
08:38 996 29.41 825 24.36 3.6 38.4 63 -2.8 27 0
08:39 996 29.41 825 24.36 3.8 38.9 63 -2.5 27.4 0
08:40 996 29.41 825 24.36 4 39.2 61 -2.9 26.7 0
08:41 996 29.41 825 24.36 4.2 39.5 60 -2.9 26.9 0
08:42 996 29.41 825 24.36 4.3 39.7 59 -3.1 26.4 0
08:43 995 29.38 825 24.36 4.4 40 60 -2.7 27.1 0
08:44 995 29.38 825 24.36 4.4 39.8 60 -2.8 27 0
08:45 995 29.38 825 24.36 4.4 39.9 59 -3 26.7 0
08:46 995 29.38 825 24.36 4.4 39.8 60 -2.8 26.9 0
08:47 995 29.38 825 24.36 4.4 39.9 59 -2.9 26.7 0
08:48 995 29.38 825 24.36 4.4 39.9 58 -3 26.5 0
08:49 995 29.38 825 24.36 4.5 40 58 -3.1 26.4 0
08:50 995 29.38 825 24.36 4.5 40.1 58 -2.9 26.7 0
08:51 995 29.38 825 24.36 4.5 40.2 56 -3.4 25.8 0
08:52 995 29.38 825 24.36 4.9 40.8 55 -3.5 25.7 0
08:53 995 29.38 825 24.36 5 41 55 -3.2 26.3 0
08:54 995 29.38 825 24.36 4.9 40.9 56 -3.2 26.2 0
08:55 995 29.38 825 24.36 4.8 40.7 57 -2.9 26.8 0
08:56 995 29.38 825 24.36 4.7 40.4 59 -2.6 27.3 0
08:57 995 29.38 825 24.36 4.5 40.2 59 -2.8 27 0
08:58 995 29.38 824 24.33 4.5 40.1 57 -3.3 26 0
08:59 995 29.38 824 24.33 4.7 40.4 57 -3.2 26.2 0
09:00 995 29.38 824 24.33 4.8 40.6 54 -3.7 25.3 0
09:01 995 29.38 824 24.33 5 41 53 -3.7 25.4 0
09:02 995 29.38 824 24.33 5.4 41.6 50 -4.3 24.3 0
09:03 995 29.38 824 24.33 5.6 42.1 52 -3.5 25.8 0
09:04 995 29.38 824 24.33 5.7 42.3 47 -4.8 23.3 0
09:05 995 29.38 825 24.36 6.2 43.1 47 -4.4 24.1 0
09:06 995 29.38 824 24.33 6.3 43.3 47 -4.1 24.6 0
09:07 995 29.38 824 24.33 6.2 43.2 46 -4.4 24.1 0
09:08 995 29.38 824 24.33 6.2 43.2 49 -3.6 25.5 0
09:09 995 29.38 824 24.33 6 42.9 48 -4.2 24.5 0
09:10 995 29.38 824 24.33 6.1 43 47 -4.3 24.2 0
09:11 995 29.38 824 24.33 6.2 43.2 46 -4.4 24 0
09:12 995 29.38 824 24.33 6.2 43.1 49 -3.7 25.4 0
09:13 995 29.38 824 24.33 6.1 42.9 48 -4 24.8 0
09:14 995 29.38 824 24.33 6 42.8 51 -3.4 25.9 0
09:15 995 29.38 824 24.33 5.8 42.4 50 -3.9 25 0
09:16 995 29.38 824 24.33 5.7 42.3 52 -3.4 25.9 0
09:17 995 29.38 824 24.33 5.6 42.1 50 -4 24.8 0
09:18 995 29.38 824 24.33 5.8 42.4 48 -4.4 24.1 0
09:19 995 29.38 824 24.33 6 42.8 50 -3.5 25.6 0
09:20 995 29.38 824 24.33 5.9 42.5 50 -3.7 25.3 0
09:21 995 29.38 824 24.33 5.8 42.4 51 -3.5 25.7 0
09:22 995 29.38 824 24.33 5.7 42.2 52 -3.5 25.7 0
09:23 995 29.38 824 24.33 5.7 42.2 49 -4.2 24.4 0
09:24 995 29.38 824 24.33 5.9 42.7 48 -4.2 24.5 0
09:25 995 29.38 824 24.33 6.1 43 47 -4.3 24.3 0
09:26 995 29.38 824 24.33 6.2 43.1 46 -4.7 23.6 0
09:27 995 29.38 824 24.33 6.3 43.3 49 -3.6 25.5 0
09:28 995 29.38 824 24.33 6 42.9 48 -4.2 24.5 0
09:29 995 29.38 824 24.33 5.9 42.6 49 -3.9 25.1 0
09:30 995 29.38 824 24.33 5.9 42.7 49 -3.9 24.9 0
09:31 995 29.38 824 24.33 6 42.8 50 -3.8 25.2 0
09:32 995 29.38 824 24.33 5.9 42.6 50 -3.9 25.1 0
09:33 995 29.38 824 24.33 5.9 42.6 49 -3.9 25.1 0
09:34 995 29.38 824 24.33 5.9 42.6 50 -3.6 25.5 0
09:35 995 29.38 824 24.33 5.8 42.4 49 -4 24.9 0
09:36 995 29.38 824 24.33 5.8 42.5 50 -3.7 25.4 0
09:37 995 29.38 824 24.33 5.7 42.3 50 -3.9 25.1 0
09:38 995 29.38 824 24.33 5.7 42.2 49 -4.1 24.6 0
09:39 995 29.38 824 24.33 5.7 42.3 51 -3.8 25.2 0
09:40 995 29.38 824 24.33 5.7 42.3 50 -3.9 24.9 0
09:41 995 29.38 824 24.33 5.8 42.4 50 -3.9 25 0
09:42 995 29.38 824 24.33 5.9 42.6 49 -4 24.8 0
09:43 995 29.38 824 24.33 5.9 42.7 48 -4.1 24.6 0
09:44 995 29.38 824 24.33 6 42.8 48 -4.3 24.3 0
09:45 995 29.38 824 24.33 6.3 43.3 47 -4.3 24.2 0
09:46 995 29.38 824 24.33 6.3 43.3 47 -4.2 24.4 0
09:47 995 29.38 824 24.33 6.1 43 48 -4 24.8 0
09:48 995 29.38 824 24.33 5.9 42.7 49 -4 24.7 0
09:49 995 29.38 824 24.33 5.9 42.6 49 -3.9 25 0
09:50 995 29.38 824 24.33 5.9 42.6 48 -4.3 24.3 0
09:51 995 29.38 824 24.33 6 42.8 47 -4.5 23.8 0
09:52 995 29.38 824 24.33 6.1 43 47 -4.5 23.9 0
09:53 995 29.38 824 24.33 6.2 43.1 43 -5.4 22.3 0
09:54 995 29.38 824 24.33 6.6 43.8 44 -4.8 23.4 0
09:55 995 29.38 824 24.33 6.6 43.9 45 -4.5 23.9 0
09:56 995 29.38 824 24.33 6.7 44 43 -4.9 23.2 0
09:57 995 29.38 824 24.33 6.7 44.1 45 -4.4 24.1 0
09:58 995 29.38 824 24.33 6.6 43.8 44 -5 23.1 0
09:59 995 29.38 824 24.33 6.7 44 42 -5.3 22.4 0
10:00 995 29.38 824 24.33 6.7 44.1 46 -4.2 24.5 0
10:01 995 29.38 824 24.33 6.4 43.5 48 -3.9 25 0
10:02 995 29.38 824 24.33 6.1 43 49 -3.9 25 0
10:03 995 29.38 824 24.33 6 42.9 46 -4.6 23.8 0
10:04 995 29.38 824 24.33 6.1 43 48 -4.2 24.5 0
10:05 995 29.38 824 24.33 6.1 43 48 -4.2 24.5 0
10:06 995 29.38 824 24.33 6 42.8 48 -4.1 24.6 0
10:07 995 29.38 824 24.33 6 42.7 49 -3.9 25 0
10:08 995 29.38 824 24.33 5.8 42.5 47 -4.7 23.6 0
10:09 995 29.38 824 24.33 6 42.8 48 -4.1 24.6 0
10:10 995 29.38 824 24.33 6 42.8 48 -4.2 24.5 0
10:11 995 29.38 824 24.33 6.1 43 45 -5 23 0
10:12 995 29.38 824 24.33 6.3 43.3 47 -4.1 24.6 0
10:13 995 29.38 824 24.33 6 42.8 48 -4.1 24.7 0
10:14 995 29.38 824 24.33 6 42.8 47 -4.6 23.8 0
10:15 995 29.38 824 24.33 6.1 43.1 49 -3.8 25.2 0
10:16 995 29.38 824 24.33 6 42.8 49 -4 24.8 0
10:17 995 29.38 824 24.33 6 42.8 48 -4.1 24.7 0
10:18 995 29.38 824 24.33 5.9 42.6 47 -4.5 23.9 0
10:19 995 29.38 824 24.33 6 42.8 47 -4.3 24.2 0
10:20 995 29.38 824 24.33 6.2 43.1 48 -4.1 24.6 0
10:21 995 29.38 824 24.33 6.1 43 46 -4.7 23.5 0
10:22 995 29.38 824 24.33 6.1 42.9 49 -3.8 25.1 0
10:23 995 29.38 824 24.33 5.9 42.6 50 -3.8 25.2 0
10:24 995 29.38 824 24.33 5.8 42.4 50 -3.8 25.2 0
10:25 995 29.38 824 24.33 5.8 42.4 49 -4.1 24.7 0
10:26 995 29.38 824 24.33 5.8 42.4 49 -4.2 24.4 0
10:27 995 29.38 824 24.33 5.8 42.5 50 -3.7 25.3 0
10:28 995 29.38 824 24.33 5.7 42.3 50 -3.7 25.3 0
10:29 995 29.38 824 24.33 5.7 42.3 48 -4.5 23.8 0
10:30 995 29.38 824 24.33 5.9 42.7 49 -4 24.7 0
10:31 995 29.38 824 24.33 5.9 42.7 48 -4.3 24.3 0
10:32 995 29.38 824 24.33 6 42.8 45 -4.9 23.1 0
10:33 995 29.38 824 24.33 6.4 43.4 45 -4.8 23.4 0
10:34 994 29.35 824 24.33 6.5 43.7 44 -4.8 23.4 0
10:35 995 29.38 824 24.33 6.8 44.2 42 -5.1 22.8 0
10:36 995 29.38 824 24.33 6.7 44.1 46 -4.1 24.6 0
10:37 995 29.38 824 24.33 6.6 43.8 46 -4.3 24.2 0
10:38 995 29.38 824 24.33 6.5 43.7 47 -4.1 24.6 0
10:39 995 29.38 824 24.33 6.2 43.2 49 -3.7 25.4 0
10:40 995 29.38 824 24.33 6 42.9 48 -4 24.7 0
10:41 995 29.38 824 24.33 6 42.7 49 -3.9 24.9 0
10:42 995 29.38 824 24.33 5.9 42.7 49 -4.1 24.7 0
10:43 995 29.38 824 24.33 6 42.8 47 -4.3 24.2 0
10:44 995 29.38 824 24.33 6.1 43 49 -3.9 25 0
10:45 995 29.38 824 24.33 6.1 43 47 -4.5 23.9 0
10:46 995 29.38 824 24.33 6.3 43.3 45 -4.9 23.3 0
10:47 995 29.38 824 24.33 6.5 43.6 46 -4.3 24.2 0
10:48 994 29.35 824 24.33 6.5 43.7 44 -5 23.1 0
10:49 994 29.35 824 24.33 6.6 43.9 45 -4.4 24.1 0
10:50 994 29.35 823 24.3 6.6 43.8 44 -4.7 23.6 0
10:51 994 29.35 824 24.33 6.5 43.6 47 -4.1 24.6 0
10:52 994 29.35 824 24.33 6.4 43.5 47 -4.2 24.5 0
10:53 994 29.35 824 24.33 6.4 43.4 48 -3.8 25.1 0
10:54 994 29.35 824 24.33 6.3 43.4 48 -3.9 25 0
10:55 994 29.35 824 24.33 6.3 43.4 42 -5.5 22.1 0
10:56 994 29.35 824 24.33 6.7 44 45 -4.4 24.1 0
10:57 994 29.35 824 24.33 6.7 44.1 44 -4.6 23.7 0
10:58 994 29.35 824 24.33 6.7 44 46 -4.3 24.3 0
10:59 994 29.35 824 24.33 6.7 44 45 -4.3 24.3 0
11:00 994 29.35 824 24.33 6.6 43.9 47 -3.9 24.9 0
11:01 994 29.35 823 24.3 6.5 43.7 45 -4.7 23.6 0
11:02 994 29.35 824 24.33 6.6 43.9 45 -4.4 24.1 0
11:03 994 29.35 824 24.33 6.6 43.9 46 -4 24.7 0
11:04 994 29.35 824 24.33 6.6 43.9 47 -3.9 24.9 0
11:05 994 29.35 823 24.3 6.5 43.7 46 -4.3 24.3 0
11:06 994 29.35 823 24.3 6.5 43.7 45 -4.6 23.6 0
11:07 994 29.35 823 24.3 6.6 44 45 -4.3 24.2 0
11:08 994 29.35 823 24.3 6.7 44 45 -4.6 23.8 0
11:09 994 29.35 823 24.3 6.7 44 44 -4.8 23.4 0
11:10 994 29.35 823 24.3 6.7 44.1 44 -4.6 23.7 0
11:11 994 29.35 823 24.3 6.8 44.2 46 -4.1 24.5 0
11:12 994 29.35 823 24.3 6.7 44.1 44 -4.7 23.5 0
11:13 994 29.35 823 24.3 6.8 44.2 45 -4.4 24 0
11:14 994 29.35 823 24.3 6.8 44.3 42 -5.1 22.8 0
11:15 994 29.35 823 24.3 7 44.6 42 -4.9 23.1 0
11:16 994 29.35 824 24.33 6.9 44.5 43 -4.6 23.6 0
11:17 994 29.35 823 24.3 6.9 44.4 47 -3.8 25.2 0
11:18 994 29.35 823 24.3 6.6 43.8 47 -3.9 25 0
11:19 994 29.35 823 24.3 6.4 43.6 48 -3.9 25 0
11:20 994 29.35 823 24.3 6.4 43.6 49 -3.5 25.7 0
11:21 994 29.35 823 24.3 6.2 43.2 51 -3.1 26.4 0
11:22 994 29.35 823 24.3 6 42.7 53 -3 26.6 0
11:23 994 29.35 823 24.3 5.8 42.4 52 -3.3 26.1 0
11:24 994 29.35 823 24.3 5.9 42.6 52 -3.2 26.3 0
11:25 994 29.35 823 24.3 5.8 42.4 52 -3.3 26 0
11:26 994 29.35 823 24.3 5.8 42.4 51 -3.4 25.8 0
11:27 994 29.35 823 24.3 5.7 42.2 55 -2.7 27.1 0
11:28 994 29.35 823 24.3 5.5 42 53 -3.2 26.2 0
11:29 994 29.35 823 24.3 5.6 42 55 -2.9 26.8 0
11:30 994 29.35 823 24.3 5.4 41.8 55 -3 26.7 0
11:31 994 29.35 823 24.3 5.3 41.5 56 -2.8 27 0
11:32 994 29.35 823 24.3 5.3 41.5 55 -3 26.6 0
11:33 994 29.35 823 24.3 5.3 41.6 54 -3.1 26.4 0
11:34 994 29.35 823 24.3 5.5 41.9 53 -3.2 26.2 0
11:35 994 29.35 823 24.3 5.6 42 54 -3 26.6 0
11:36 994 29.35 823 24.3 5.5 41.8 55 -2.8 27 0
11:37 994 29.35 823 24.3 5.3 41.5 54 -3.4 25.9 0
11:38 994 29.35 823 24.3 5.3 41.5 57 -2.6 27.3 0
11:39 994 29.35 823 24.3 5 41 58 -2.5 27.5 0
11:40 994 29.35 823 24.3 4.8 40.6 58 -2.8 26.9 0
11:41 994 29.35 823 24.3 4.8 40.7 58 -2.9 26.9 0
11:42 994 29.35 823 24.3 4.9 40.7 56 -3.1 26.3 0
11:43 994 29.35 823 24.3 5.2 41.4 53 -3.5 25.7 0
11:44 994 29.35 823 24.3 5.4 41.8 52 -3.6 25.6 0
11:45 994 29.35 824 24.33 5.8 42.4 50 -3.8 25.2 0
11:46 994 29.35 824 24.33 6 42.8 47 -4.4 24 0
11:47 994 29.35 824 24.33 6.2 43.2 48 -3.9 25 0
11:48 995 29.38 824 24.33 6.2 43.1 48 -3.9 24.9 0
11:49 995 29.38 824 24.33 6.1 43.1 51 -3.2 26.2 0
11:50 995 29.38 824 24.33 5.9 42.7 49 -3.9 25 0
11:51 995 29.38 824 24.33 5.9 42.7 48 -4.1 24.6 0
11:52 995 29.38 824 24.33 5.9 42.6 49 -3.9 25 0
11:53 995 29.38 824 24.33 5.9 42.6 52 -3.3 26.1 0
11:54 995 29.38 824 24.33 5.6 42.1 50 -4.1 24.7 0
11:55 995 29.38 824 24.33 5.7 42.2 51 -3.7 25.3 0
11:56 995 29.38 824 24.33 5.7 42.3 51 -3.6 25.4 0
11:57 995 29.38 824 24.33 5.7 42.2 52 -3.5 25.7 0
11:58 995 29.38 824 24.33 5.6 42.1 51 -3.8 25.2 0
11:59 995 29.38 824 24.33 5.7 42.2 53 -3.3 26.1 0
12:00 995 29.38 824 24.33 5.5 41.8 53 -3.4 25.8 0
12:01 995 29.38 824 24.33 5.3 41.6 56 -2.7 27.1 0
12:02 995 29.38 824 24.33 5.2 41.4 55 -3.1 26.4 0
12:03 995 29.38 824 24.33 5.2 41.3 54 -3.3 26.1 0
12:04 995 29.38 824 24.33 5.2 41.3 55 -3.2 26.2 0
12:05 995 29.38 824 24.33 5.2 41.4 56 -2.8 26.9 0
12:06 995 29.38 824 24.33 5.1 41.1 57 -2.9 26.8 0
12:07 995 29.38 824 24.33 5 41 58 -2.7 27.2 0
12:08 995 29.38 824 24.33 4.9 40.7 58 -2.7 27.2 0
12:09 994 29.35 824 24.33 4.7 40.5 59 -2.7 27.2 0
12:10 995 29.38 824 24.33 4.7 40.4 61 -2.2 28.1 0
12:11 994 29.35 824 24.33 4.4 40 62 -2.3 27.8 0
12:12 995 29.38 824 24.33 4.3 39.7 62 -2.3 27.8 0
12:13 995 29.38 824 24.33 4.2 39.6 63 -2.1 28.2 0
12:14 995 29.38 824 24.33 4.2 39.5 64 -2.1 28.3 0
12:15 995 29.38 824 24.33 4.1 39.4 65 -2 28.5 0
12:16 995 29.38 824 24.33 4 39.3 66 -1.7 28.9 0
12:17 995 29.38 824 24.33 3.9 39 68 -1.5 29.4 0
12:18 995 29.38 824 24.33 3.7 38.6 71 -1.2 29.9 0
12:19 995 29.38 824 24.33 3.4 38.2 72 -1 30.1 0
12:20 995 29.38 824 24.33 3.3 37.9 73 -1 30.2 0
12:21 995 29.38 824 24.33 3.2 37.8 75 -0.9 30.4 0
12:22 995 29.38 824 24.33 3.1 37.5 76 -0.8 30.6 0
12:23 995 29.38 824 24.33 3 37.4 76 -0.9 30.4 0
12:24 995 29.38 824 24.33 2.9 37.3 76 -0.8 30.5 0
12:25 994 29.35 824 24.33 2.9 37.3 77 -0.8 30.6 0
12:26 994 29.35 824 24.33 2.9 37.1 77 -0.7 30.7 0
12:27 994 29.35 824 24.33 2.9 37.2 77 -0.8 30.6 0
12:28 994 29.35 824 24.33 2.9 37.2 77 -0.8 30.6 0
12:29 994 29.35 824 24.33 2.9 37.2 77 -0.7 30.7 0
12:30 994 29.35 824 24.33 2.9 37.2 77 -0.7 30.8 0
12:31 994 29.35 824 24.33 2.9 37.2 77 -0.8 30.6 0
12:32 994 29.35 824 24.33 2.9 37.2 77 -0.7 30.7 0
12:33 994 29.35 823 24.3 2.9 37.3 76 -0.9 30.4 0
12:34 994 29.35 823 24.3 3.1 37.5 75 -0.9 30.4 0
12:35 994 29.35 823 24.3 3.1 37.6 75 -0.8 30.5 0
12:36 994 29.35 823 24.3 3.2 37.7 74 -1 30.1 0
12:37 994 29.35 823 24.3 3.1 37.7 75 -0.8 30.5 0
12:38 994 29.35 823 24.3 3 37.5 76 -0.8 30.6 0
12:39 994 29.35 823 24.3 3 37.3 77 -0.8 30.6 0
12:40 994 29.35 823 24.3 2.9 37.1 77 -0.8 30.6 0
12:41 994 29.35 823 24.3 2.9 37.2 77 -0.8 30.5 0
12:42 994 29.35 823 24.3 2.8 37.1 76 -0.9 30.4 0
12:43 994 29.35 823 24.3 2.9 37.3 75 -1 30.2 0
12:44 994 29.35 823 24.3 3.1 37.7 73 -1.2 29.8 0
12:45 994 29.35 823 24.3 3.4 38 72 -1.2 29.9 0
12:46 994 29.35 823 24.3 3.4 38.2 72 -1.2 29.9 0
12:47 994 29.35 823 24.3 3.4 38.2 71 -1.2 29.8 0
12:48 994 29.35 823 24.3 3.5 38.4 70 -1.4 29.5 0
12:49 994 29.35 823 24.3 3.7 38.6 69 -1.4 29.5 0
12:50 994 29.35 823 24.3 3.7 38.7 69 -1.5 29.4 0
12:51 994 29.35 823 24.3 3.9 39 69 -1.4 29.5 0
12:52 994 29.35 823 24.3 3.9 39.1 68 -1.4 29.4 0
12:53 994 29.35 823 24.3 4 39.1 68 -1.3 29.6 0
12:54 994 29.35 823 24.3 3.9 39 68 -1.4 29.5 0
12:55 994 29.35 823 24.3 3.9 39.1 68 -1.4 29.5 0
12:56 994 29.35 823 24.3 3.9 39 68 -1.5 29.3 0
12:57 994 29.35 823 24.3 4 39.2 67 -1.6 29.1 0
12:58 994 29.35 823 24.3 4.1 39.4 66 -1.7 29 0
12:59 994 29.35 823 24.3 4.3 39.7 64 -2 28.4 0
13:00 994 29.35 823 24.3 4.5 40.1 60 -2.5 27.4 0
13:01 994 29.35 823 24.3 4.8 40.6 60 -2.3 27.9 0
13:02 994 29.35 823 24.3 4.9 40.8 59 -2.5 27.5 0
13:03 994 29.35 823 24.3 5 41 57 -2.8 27 0
13:04 994 29.35 823 24.3 5.2 41.4 55 -3 26.6 0
13:05 994 29.35 823 24.3 5.5 41.9 55 -2.9 26.8 0
13:06 994 29.35 823 24.3 5.6 42.1 54 -2.9 26.8 0
13:07 994 29.35 823 24.3 5.7 42.3 50 -3.8 25.1 0
13:08 994 29.35 823 24.3 5.8 42.5 50 -3.7 25.4 0
13:09 994 29.35 823 24.3 5.8 42.5 48 -4.2 24.4 0
13:10 994 29.35 823 24.3 6 42.7 47 -4.4 24 0
13:11 994 29.35 823 24.3 6 42.8 49 -3.8 25.1 0
13:12 994 29.35 823 24.3 6.1 43 48 -4.1 24.7 0
13:13 994 29.35 823 24.3 6.2 43.2 46 -4.7 23.6 0
13:14 994 29.35 823 24.3 6.3 43.3 48 -3.8 25.1 0
13:15 994 29.35 823 24.3 6.2 43.2 46 -4.6 23.7 0
13:16 994 29.35 823 24.3 6.3 43.3 47 -4.3 24.3 0
13:17 994 29.35 823 24.3 6.3 43.4 48 -3.9 24.9 0
13:18 994 29.35 823 24.3 6.3 43.4 47 -4.1 24.6 0
13:19 994 29.35 823 24.3 6.3 43.3 48 -3.9 25 0
13:20 994 29.35 823 24.3 6.3 43.3 45 -4.9 23.1 0
13:21 994 29.35 823 24.3 6.4 43.6 46 -4.4 24 0
13:22 994 29.35 823 24.3 6.3 43.4 47 -4 24.8 0
13:23 994 29.35 823 24.3 6.3 43.4 46 -4.3 24.2 0
13:24 994 29.35 823 24.3 6.4 43.5 45 -4.6 23.7 0
13:25 994 29.35 823 24.3 6.5 43.6 46 -4.3 24.2 0
13:26 994 29.35 823 24.3 6.4 43.6 45 -4.7 23.5 0
13:27 994 29.35 823 24.3 6.5 43.7 45 -4.6 23.7 0
13:28 994 29.35 823 24.3 6.4 43.5 47 -4.2 24.4 0
13:29 994 29.35 823 24.3 6.3 43.3 46 -4.4 24 0
13:30 994 29.35 823 24.3 6.3 43.4 46 -4.4 24.1 0
13:31 994 29.35 823 24.3 6.3 43.3 47 -4.2 24.5 0
13:32 994 29.35 823 24.3 6.2 43.2 47 -4.4 24.1 0
13:33 994 29.35 823 24.3 6.2 43.2 47 -4.1 24.6 0
13:34 994 29.35 823 24.3 6.1 43 47 -4.2 24.4 0
13:35 994 29.35 824 24.33 6.1 43 49 -3.9 25 0
13:36 994 29.35 824 24.33 6.1 43.1 49 -3.9 25 0
13:37 994 29.35 824 24.33 6.2 43.1 46 -4.6 23.7 0
13:38 994 29.35 824 24.33 6.3 43.3 48 -4 24.9 0
13:39 994 29.35 824 24.33 6.3 43.3 47 -4.2 24.4 0
13:40 995 29.38 824 24.33 6.3 43.4 49 -3.6 25.5 0
13:41 995 29.38 824 24.33 6.3 43.4 50 -3.3 26 0
13:42 995 29.38 824 24.33 6.2 43.1 50 -3.5 25.7 0
13:43 995 29.38 824 24.33 6.1 43 50 -3.6 25.6 0
13:44 995 29.38 824 24.33 6.1 43 50 -3.6 25.5 0
13:45 995 29.38 824 24.33 6.1 43.1 50 -3.6 25.5 0
13:46 995 29.38 825 24.36 6.1 43 50 -3.5 25.6 0
13:47 996 29.41 825 24.36 5.9 42.7 57 -2 28.4 0
13:48 996 29.41 825 24.36 4.9 40.9 67 -0.8 30.6 0
13:49 996 29.41 825 24.36 3.4 38 74 -0.9 30.4 0
13:50 996 29.41 825 24.36 2.4 36.2 79 -1 30.2 0
13:51 996 29.41 826 24.39 1.7 35 82 -1.1 30.1 0
13:52 996 29.41 826 24.39 1.2 34.2 84 -1.1 30 0
13:53 996 29.41 826 24.39 0.9 33.7 86 -1.1 30 0
13:54 997 29.44 826 24.39 0.7 33.2 88 -1 30.1 0
13:55 997 29.44 826 24.39 0.5 32.9 90 -1 30.2 0
13:56 997 29.44 826 24.39 0.3 32.6 91 -1 30.2 0
13:57 997 29.44 826 24.39 0.2 32.3 92 -1 30.2 0
13:58 997 29.44 826 24.39 0.1 32.2 92 -1 30.3 0
13:59 997 29.44 826 24.39 0 32 93 -1 30.2 0
14:00 997 29.44 826 24.39 -0 31.9 94 -0.9 30.3 0
14:01 997 29.44 826 24.39 -0.1 31.8 94 -0.9 30.4 0
14:02 997 29.44 826 24.39 -0.2 31.6 95 -0.9 30.3 0
14:03 997 29.44 826 24.39 -0.2 31.6 95 -0.9 30.4 0
14:04 997 29.44 826 24.39 -0.3 31.5 96 -0.9 30.4 0
14:05 997 29.44 826 24.39 -0.3 31.4 96 -0.9 30.4 0
14:06 997 29.44 827 24.42 -0.3 31.4 96 -0.9 30.4 0
14:07 997 29.44 827 24.42 -0.4 31.3 97 -0.9 30.4 0
14:08 998 29.47 827 24.42 -0.4 31.3 97 -0.9 30.4 0
14:09 998 29.47 827 24.42 -0.4 31.2 97 -0.9 30.4 0
14:10 998 29.47 827 24.42 -0.4 31.3 97 -0.8 30.5 0
14:11 998 29.47 827 24.42 -0.4 31.2 97 -0.8 30.5 0
14:12 998 29.47 827 24.42 -0.5 31.2 97 -0.8 30.5 0
14:13 998 29.47 827 24.42 -0.4 31.2 97 -0.8 30.5 0
14:14 998 29.47 827 24.42 -0.5 31.2 97 -0.8 30.5 0
14:15 998 29.47 827 24.42 -0.5 31.2 97 -0.8 30.5 0
14:16 998 29.47 827 24.42 -0.5 31.2 98 -0.8 30.6 0
14:17 998 29.47 827 24.42 -0.5 31.2 97 -0.8 30.5 0
14:18 998 29.47 827 24.42 -0.5 31.2 98 -0.8 30.6 0
14:19 998 29.47 827 24.42 -0.5 31.1 98 -0.8 30.5 0
14:20 998 29.47 827 24.42 -0.5 31.2 98 -0.8 30.5 0
14:21 998 29.47 827 24.42 -0.4 31.2 98 -0.8 30.6 0
14:22 998 29.47 827 24.42 -0.5 31.1 98 -0.8 30.5 0
14:23 998 29.47 828 24.45 -0.5 31.1 98 -0.8 30.5 0
14:24 998 29.47 828 24.45 -0.5 31.1 98 -0.8 30.6 0
14:25 998 29.47 828 24.45 -0.5 31.1 98 -0.8 30.5 0
14:26 998 29.47 828 24.45 -0.5 31.1 98 -0.8 30.5 0
14:27 998 29.47 828 24.45 -0.5 31.1 98 -0.8 30.5 0
14:28 998 29.47 828 24.45 -0.5 31 98 -0.8 30.5 0
14:29 998 29.47 827 24.42 -0.6 31 98 -0.9 30.4 0
14:30 998 29.47 828 24.45 -0.6 31 98 -0.9 30.4 0
14:31 998 29.47 827 24.42 -0.6 31 98 -0.9 30.4 0
14:32 998 29.47 827 24.42 -0.6 30.9 98 -0.9 30.3 0
14:33 998 29.47 827 24.42 -0.6 30.9 98 -0.9 30.3 0
14:34 998 29.47 827 24.42 -0.6 30.9 98 -1 30.3 0
14:35 998 29.47 827 24.42 -0.6 30.9 98 -0.9 30.3 0
14:36 998 29.47 827 24.42 -0.6 31 98 -0.9 30.4 0
14:37 998 29.47 828 24.45 -0.6 31 98 -0.9 30.4 0
14:38 998 29.47 828 24.45 -0.6 30.9 98 -0.9 30.3 0
14:39 999 29.5 828 24.45 -0.5 31 98 -0.9 30.4 0
14:40 999 29.5 828 24.45 -0.5 31 98 -0.9 30.4 0
14:41 999 29.5 828 24.45 -0.5 31.1 97 -0.9 30.4 0
14:42 999 29.5 828 24.45 -0.6 31 97 -0.9 30.3 0
14:43 999 29.5 828 24.45 -0.5 31 97 -0.9 30.3 0
14:44 999 29.5 828 24.45 -0.5 31.1 97 -0.9 30.4 0
14:45 999 29.5 828 24.45 -0.5 31.1 97 -0.9 30.3 0
14:46 999 29.5 828 24.45 -0.5 31.2 97 -0.9 30.4 0
14:47 999 29.5 828 24.45 -0.4 31.2 97 -0.9 30.4 0
14:48 999 29.5 828 24.45 -0.5 31.2 97 -0.9 30.3 0
14:49 999 29.5 828 24.45 -0.5 31.2 96 -1 30.3 0
14:50 999 29.5 828 24.45 -0.4 31.3 96 -1 30.3 0
14:51 999 29.5 828 24.45 -0.4 31.4 95 -1 30.2 0
14:52 999 29.5 828 24.45 -0.3 31.5 94 -1.1 30 0
14:53 999 29.5 828 24.45 -0.3 31.5 94 -1.1 30 0
14:54 999 29.5 828 24.45 -0.2 31.6 93 -1.2 29.8 0
14:55 999 29.5 828 24.45 -0.2 31.7 92 -1.3 29.7 0
14:56 999 29.5 828 24.45 -0.1 31.8 92 -1.3 29.6 0
14:57 999 29.5 828 24.45 -0.1 31.9 91 -1.3 29.6 0
14:58 999 29.5 828 24.45 -0 31.9 92 -1.2 29.8 0
14:59 999 29.5 828 24.45 -0 31.9 91 -1.3 29.6 0
15:00 999 29.5 828 24.45 -0 32 91 -1.4 29.5 0
15:01 999 29.5 828 24.45 0 32 90 -1.4 29.6 0
15:02 999 29.5 828 24.45 0 32 91 -1.3 29.6 0
15:03 999 29.5 828 24.45 0 32.1 90 -1.4 29.6 0
15:04 999 29.5 828 24.45 0.1 32.1 90 -1.3 29.6 0
15:05 999 29.5 828 24.45 0.1 32.1 91 -1.3 29.6 0
15:06 999 29.5 828 24.45 0.1 32.1 90 -1.3 29.6 0
15:07 999 29.5 828 24.45 0.1 32.1 90 -1.4 29.5 0
15:08 999 29.5 828 24.45 0.1 32.1 90 -1.4 29.6 0
15:09 999 29.5 828 24.45 0.1 32.2 89 -1.4 29.4 0
15:10 999 29.5 828 24.45 0.1 32.2 90 -1.3 29.6 0
15:11 999 29.5 829 24.48 0.1 32.2 89 -1.5 29.3 0
15:12 999 29.5 828 24.45 0.2 32.3 89 -1.5 29.3 0
15:13 999 29.5 829 24.48 0.2 32.4 89 -1.3 29.6 0
15:14 999 29.5 829 24.48 0.2 32.3 89 -1.5 29.3 0
15:15 999 29.5 829 24.48 0.2 32.4 89 -1.4 29.4 0
15:16 999 29.5 829 24.48 0.2 32.3 88 -1.5 29.3 0
15:17 1000 29.53 829 24.48 0.2 32.3 89 -1.5 29.4 0
15:18 1000 29.53 829 24.48 0.2 32.4 89 -1.4 29.6 0
15:19 1000 29.53 829 24.48 0.2 32.4 89 -1.4 29.6 0
15:20 1000 29.53 829 24.48 0.2 32.3 90 -1.3 29.6 0
15:21 1000 29.53 829 24.48 0.2 32.3 90 -1.2 29.8 0
15:22 1000 29.53 829 24.48 0.1 32.3 91 -1.2 29.9 0
15:23 1000 29.53 829 24.48 0.1 32.1 91 -1.2 29.8 0
15:24 1000 29.53 829 24.48 0.1 32.2 91 -1.1 30 0
15:25 1000 29.53 829 24.48 0.1 32.2 92 -1.1 30.1 0
15:26 1000 29.53 829 24.48 0.1 32.3 92 -1 30.1 0
15:27 1000 29.53 829 24.48 0.1 32.2 92 -1 30.1 0
15:28 1000 29.53 829 24.48 0.1 32.2 92 -1.1 30 0
15:29 1000 29.53 829 24.48 0.1 32.2 92 -1.1 30.1 0
15:30 1000 29.53 829 24.48 0.1 32.1 91 -1.2 29.9 0
15:31 1000 29.53 829 24.48 0.1 32.2 91 -1.2 29.8 0
15:32 1000 29.53 829 24.48 0.1 32.2 91 -1.2 29.8 0
15:33 1000 29.53 829 24.48 0.1 32.2 91 -1.2 29.8 0
15:34 1000 29.53 829 24.48 0.1 32.2 90 -1.3 29.7 0
15:35 1000 29.53 829 24.48 0.1 32.2 90 -1.3 29.6 0
15:36 1000 29.53 829 24.48 0.1 32.2 90 -1.3 29.7 0
15:37 1000 29.53 829 24.48 0.1 32.1 91 -1.2 29.8 0
15:38 1000 29.53 829 24.48 0 32.1 91 -1.2 29.8 0
15:39 1000 29.53 829 24.48 0 32 92 -1.2 29.9 0
15:40 1000 29.53 829 24.48 -0 32 92 -1.1 30 0
15:41 1000 29.53 829 24.48 -0.1 31.9 93 -1.1 30 0
15:42 1000 29.53 829 24.48 -0.1 31.9 93 -1.1 30.1 0
15:43 1000 29.53 829 24.48 -0.1 31.8 93 -1.1 30.1 0
15:44 1000 29.53 829 24.48 -0.2 31.7 94 -1.1 30.1 0
15:45 1000 29.53 829 24.48 -0.2 31.7 94 -1 30.1 0
15:46 1000 29.53 830 24.51 -0.2 31.6 94 -1 30.1 0
15:47 1000 29.53 830 24.51 -0.3 31.5 94 -1.1 30.1 0
15:48 1000 29.53 830 24.51 -0.3 31.5 95 -1 30.1 0
15:49 1000 29.53 830 24.51 -0.3 31.4 95 -1.1 30.1 0
15:50 1000 29.53 830 24.51 -0.3 31.4 95 -1 30.2 0
15:51 1000 29.53 830 24.51 -0.4 31.3 95 -1 30.1 0
15:52 1000 29.53 830 24.51 -0.4 31.3 95 -1 30.1 0
15:53 1000 29.53 830 24.51 -0.4 31.3 96 -1 30.2 0
15:54 1000 29.53 830 24.51 -0.4 31.3 96 -1 30.2 0
15:55 1000 29.53 830 24.51 -0.4 31.2 96 -1.1 30.1 0
15:56 1000 29.53 830 24.51 -0.5 31.1 95 -1.1 29.9 0
15:57 1000 29.53 830 24.51 -0.6 31 96 -1.2 29.8 0
15:58 1001 29.56 830 24.51 -0.6 30.9 96 -1.2 29.8 0
15:59 1001 29.56 830 24.51 -0.6 30.9 95 -1.2 29.8 0
16:00 1001 29.56 830 24.51 -0.6 30.8 95 -1.3 29.7 0
16:01 1001 29.56 830 24.51 -0.7 30.7 95 -1.3 29.6 0
16:02 1001 29.56 830 24.51 -0.7 30.7 95 -1.4 29.5 0
16:03 1001 29.56 830 24.51 -0.7 30.7 95 -1.4 29.4 0
16:04 1001 29.56 830 24.51 -0.8 30.6 95 -1.5 29.4 0
16:05 1001 29.56 830 24.51 -0.8 30.6 95 -1.5 29.3 0
16:06 1001 29.56 830 24.51 -0.8 30.5 95 -1.5 29.3 0
16:07 1001 29.56 830 24.51 -0.8 30.6 95 -1.4 29.4 0
16:08 1001 29.56 830 24.51 -0.8 30.5 95 -1.5 29.3 0
16:09 1001 29.56 830 24.51 -0.9 30.4 95 -1.5 29.3 0
16:10 1001 29.56 830 24.51 -0.9 30.4 95 -1.6 29.1 0
16:11 1001 29.56 830 24.51 -0.9 30.4 95 -1.6 29.1 0
16:12 1001 29.56 830 24.51 -0.9 30.4 95 -1.6 29.1 0
16:13 1001 29.56 830 24.51 -0.9 30.3 95 -1.7 29 0
16:14 1001 29.56 830 24.51 -1 30.2 95 -1.7 28.9 0
16:15 1001 29.56 830 24.51 -1 30.2 95 -1.7 28.9 0
16:16 1001 29.56 830 24.51 -1 30.2 95 -1.7 28.9 0
16:17 1001 29.56 830 24.51 -1 30.2 95 -1.7 28.9 0
16:18 1001 29.56 830 24.51 -1 30.2 95 -1.7 28.9 0
16:19 1001 29.56 830 24.51 -1.1 30.1 95 -1.8 28.8 0
16:20 1001 29.56 830 24.51 -1 30.1 95 -1.7 28.9 0
16:21 1001 29.56 830 24.51 -1.1 30.1 95 -1.8 28.8 0
16:22 1001 29.56 830 24.51 -1.1 30 94 -1.9 28.6 0
16:23 1001 29.56 830 24.51 -1.1 30 94 -1.9 28.5 0
16:24 1001 29.56 830 24.51 -1.2 29.9 94 -1.9 28.5 0
16:25 1001 29.56 830 24.51 -1.2 29.9 94 -2 28.4 0
16:26 1001 29.56 830 24.51 -1.2 29.8 94 -2 28.4 0
16:27 1001 29.56 830 24.51 -1.3 29.7 94 -2.1 28.2 0
16:28 1001 29.56 830 24.51 -1.4 29.5 94 -2.2 28.1 0
16:29 1001 29.56 830 24.51 -1.4 29.4 94 -2.3 27.8 0
16:30 1001 29.56 830 24.51 -1.5 29.2 94 -2.4 27.6 0
16:31 1001 29.56 830 24.51 -1.6 29.1 94 -2.5 27.6 0
16:32 1001 29.56 830 24.51 -1.6 29.1 94 -2.5 27.4 0
16:33 1001 29.56 831 24.54 -1.7 29 93 -2.6 27.3 0
16:34 1001 29.56 831 24.54 -1.7 29 93 -2.7 27.1 0
16:35 1001 29.56 831 24.54 -1.7 28.9 92 -2.8 26.9 0
16:36 1001 29.56 831 24.54 -1.8 28.8 92 -2.8 26.9 0
16:37 1002 29.59 831 24.54 -1.8 28.7 92 -2.9 26.8 0
16:38 1002 29.59 831 24.54 -1.9 28.7 92 -3 26.6 0
16:39 1002 29.59 831 24.54 -1.9 28.5 92 -3.1 26.5 0
16:40 1002 29.59 831 24.54 -2 28.4 92 -3.1 26.5 0
16:41 1002 29.59 831 24.54 -2 28.3 92 -3.2 26.2 0
16:42 1002 29.59 831 24.54 -2.1 28.1 91 -3.5 25.7 0
16:43 1002 29.59 831 24.54 -2.3 27.9 91 -3.6 25.5 0
16:44 1002 29.59 831 24.54 -2.4 27.7 91 -3.7 25.4 0
16:45 1002 29.59 831 24.54 -2.4 27.7 90 -3.8 25.1 0
16:46 1002 29.59 831 24.54 -2.5 27.6 90 -3.8 25.1 0
16:47 1002 29.59 831 24.54 -2.5 27.5 90 -3.9 24.9 0
16:48 1002 29.59 831 24.54 -2.6 27.4 90 -4 24.8 0
16:49 1002 29.59 831 24.54 -2.6 27.3 90 -4 24.7 0
16:50 1002 29.59 831 24.54 -2.6 27.3 90 -4 24.7 0
16:51 1002 29.59 831 24.54 -2.7 27.2 90 -4.1 24.7 0
16:52 1002 29.59 831 24.54 -2.7 27.2 90 -4 24.8 0
16:53 1002 29.59 831 24.54 -2.7 27.2 90 -4 24.8 0
16:54 1002 29.59 831 24.54 -2.6 27.3 90 -4.1 24.7 0
16:55 1002 29.59 831 24.54 -2.6 27.3 90 -4 24.7 0
16:56 1002 29.59 831 24.54 -2.6 27.4 90 -4.1 24.7 0
16:57 1002 29.59 831 24.54 -2.6 27.4 90 -4 24.7 0
16:58 1002 29.59 831 24.54 -2.5 27.5 89 -4.1 24.6 0
16:59 1002 29.59 831 24.54 -2.5 27.5 88 -4.2 24.4 0
17:00 1002 29.59 831 24.54 -2.5 27.5 86 -4.4 24 0
17:01 1002 29.59 831 24.54 -2.5 27.6 85 -4.7 23.6 0
17:02 1002 29.59 831 24.54 -2.4 27.6 85 -4.6 23.8 0
17:03 1002 29.59 831 24.54 -2.4 27.6 85 -4.7 23.6 0
17:04 1002 29.59 831 24.54 -2.4 27.7 84 -4.7 23.5 0
17:05 1002 29.59 832 24.57 -2.4 27.7 85 -4.7 23.6 0
17:06 1002 29.59 832 24.57 -2.4 27.7 84 -4.7 23.6 0
17:07 1002 29.59 832 24.57 -2.4 27.6 84 -4.8 23.4 0
17:08 1002 29.59 832 24.57 -2.4 27.6 85 -4.7 23.6 0
17:09 1002 29.59 832 24.57 -2.5 27.6 84 -4.8 23.3 0
17:10 1003 29.62 832 24.57 -2.5 27.4 84 -4.9 23.2 0
17:11 1003 29.62 832 24.57 -2.6 27.3 83 -5 22.9 0
17:12 1003 29.62 832 24.57 -2.6 27.3 84 -5.1 22.9 0
17:13 1003 29.62 832 24.57 -2.7 27.2 83 -5.1 22.7 0
17:14 1003 29.62 832 24.57 -2.8 27 83 -5.3 22.4 0
17:15 1003 29.62 832 24.57 -2.9 26.8 83 -5.4 22.3 0
17:16 1003 29.62 832 24.57 -2.9 26.7 82 -5.7 21.8 0
17:17 1003 29.62 832 24.57 -3 26.6 80 -5.9 21.4 0
17:18 1003 29.62 832 24.57 -3.1 26.4 83 -5.7 21.8 0
17:19 1003 29.62 832 24.57 -3.2 26.3 84 -5.6 22 0
17:20 1003 29.62 832 24.57 -3.3 26.1 85 -5.5 22.1 0
17:21 1003 29.62 832 24.57 -3.3 26.1 84 -5.7 21.8 0
17:22 1003 29.62 832 24.57 -3.4 25.9 84 -5.8 21.6 0
17:23 1003 29.62 832 24.57 -3.5 25.6 84 -5.8 21.5 0
17:24 1003 29.62 833 24.6 -3.6 25.5 85 -5.8 21.5 0
17:25 1003 29.62 833 24.6 -3.6 25.5 84 -5.9 21.4 0
17:26 1003 29.62 833 24.6 -3.7 25.3 83 -6.1 21 0
17:27 1003 29.62 833 24.6 -3.7 25.3 84 -6.1 21.1 0
17:28 1003 29.62 833 24.6 -3.8 25.2 83 -6.3 20.7 0
17:29 1004 29.65 833 24.6 -3.8 25.1 84 -6.2 20.9 0
17:30 1004 29.65 833 24.6 -3.8 25.1 84 -6.2 20.8 0
17:31 1004 29.65 833 24.6 -3.8 25.1 84 -6.1 21 0
17:32 1004 29.65 833 24.6 -3.9 25.1 83 -6.3 20.7 0
17:33 1004 29.65 833 24.6 -3.8 25.1 84 -6.2 20.8 0
17:34 1004 29.65 833 24.6 -3.9 25 82 -6.5 20.3 0
17:35 1004 29.65 833 24.6 -3.9 24.9 82 -6.5 20.3 0
17:36 1004 29.65 833 24.6 -3.9 24.9 84 -6.3 20.7 0
17:37 1004 29.65 833 24.6 -4 24.9 84 -6.3 20.6 0
17:38 1004 29.65 833 24.6 -4 24.8 83 -6.5 20.2 0
17:39 1004 29.65 833 24.6 -4 24.7 79 -7.2 19.1 0
17:40 1004 29.65 833 24.6 -4.1 24.5 80 -7.2 19.1 0
17:41 1004 29.65 833 24.6 -4.2 24.5 81 -6.9 19.6 0
17:42 1004 29.65 833 24.6 -4.2 24.4 82 -6.9 19.6 0
17:43 1004 29.65 833 24.6 -4.2 24.4 80 -7.1 19.2 0
17:44 1004 29.65 833 24.6 -4.3 24.3 81 -7.1 19.2 0
17:45 1004 29.65 833 24.6 -4.3 24.3 81 -7 19.4 0
17:46 1004 29.65 833 24.6 -4.3 24.4 82 -7 19.5 0
17:47 1004 29.65 833 24.6 -4.3 24.3 82 -6.9 19.6 0
17:48 1004 29.65 833 24.6 -4.3 24.2 82 -7 19.4 0
17:49 1004 29.65 833 24.6 -4.3 24.2 82 -6.9 19.6 0
17:50 1004 29.65 833 24.6 -4.4 24.1 82 -7 19.4 0
17:51 1004 29.65 833 24.6 -4.4 24.1 81 -7.2 19 0
17:52 1004 29.65 833 24.6 -4.4 24 82 -7.1 19.2 0
17:53 1004 29.65 833 24.6 -4.4 24 79 -7.5 18.5 0
17:54 1004 29.65 833 24.6 -4.5 23.9 80 -7.4 18.6 0
17:55 1004 29.65 833 24.6 -4.5 23.8 79 -7.7 18.1 0
17:56 1004 29.65 833 24.6 -4.5 23.8 80 -7.6 18.4 0
17:57 1004 29.65 833 24.6 -4.6 23.8 80 -7.5 18.6 0
17:58 1004 29.65 833 24.6 -4.6 23.7 80 -7.6 18.4 0
17:59 1004 29.65 833 24.6 -4.6 23.7 81 -7.4 18.7 0
18:00 1004 29.65 833 24.6 -4.6 23.8 80 -7.5 18.5 0
18:01 1004 29.65 833 24.6 -4.6 23.7 79 -7.7 18.1 0
18:02 1004 29.65 833 24.6 -4.6 23.7 78 -7.8 17.9 0
18:03 1004 29.65 833 24.6 -4.6 23.7 79 -7.8 18 0
18:04 1004 29.65 833 24.6 -4.6 23.7 79 -7.7 18.2 0
18:05 1004 29.65 833 24.6 -4.6 23.8 81 -7.3 18.8 0
18:06 1004 29.65 833 24.6 -4.6 23.8 81 -7.4 18.7 0
18:07 1004 29.65 833 24.6 -4.5 23.8 81 -7.3 18.9 0
18:08 1004 29.65 833 24.6 -4.5 23.9 82 -7.2 19.1 0
18:09 1004 29.65 833 24.6 -4.5 24 80 -7.4 18.7 0
18:10 1004 29.65 833 24.6 -4.5 23.9 79 -7.6 18.3 0
18:11 1004 29.65 833 24.6 -4.5 23.8 78 -7.8 18 0
18:12 1004 29.65 833 24.6 -4.6 23.6 76 -8.2 17.2 0
18:13 1004 29.65 833 24.6 -4.7 23.6 75 -8.4 16.8 0
18:14 1004 29.65 833 24.6 -4.7 23.6 77 -8.1 17.5 0
18:15 1004 29.65 833 24.6 -4.6 23.6 75 -8.5 16.8 0
18:16 1004 29.65 833 24.6 -4.7 23.6 77 -8.1 17.4 0
18:17 1004 29.65 834 24.63 -4.7 23.5 73 -8.8 16.2 0
18:18 1004 29.65 834 24.63 -4.7 23.5 76 -8.3 17.1 0
18:19 1004 29.65 834 24.63 -4.7 23.5 77 -8.2 17.3 0
18:20 1004 29.65 834 24.63 -4.7 23.5 76 -8.2 17.2 0
18:21 1004 29.65 834 24.63 -4.7 23.5 77 -8.1 17.4 0
18:22 1004 29.65 834 24.63 -4.7 23.5 76 -8.4 16.9 0
18:23 1004 29.65 834 24.63 -4.7 23.5 76 -8.3 17 0
18:24 1004 29.65 834 24.63 -4.8 23.4 78 -8 17.5 0
18:25 1004 29.65 834 24.63 -4.7 23.5 78 -7.9 17.7 0
18:26 1005 29.68 834 24.63 -4.7 23.5 79 -7.8 18 0
18:27 1005 29.68 834 24.63 -4.7 23.5 75 -8.5 16.8 0
18:28 1005 29.68 834 24.63 -4.7 23.5 77 -8.2 17.3 0
18:29 1004 29.65 834 24.63 -4.7 23.6 77 -8.1 17.3 0
18:30 1005 29.68 834 24.63 -4.7 23.6 76 -8.3 17.1 0
18:31 1005 29.68 834 24.63 -4.7 23.6 74 -8.6 16.6 0
18:32 1005 29.68 834 24.63 -4.8 23.4 73 -8.8 16.1 0
18:33 1005 29.68 834 24.63 -4.7 23.5 69 -9.5 14.9 0
18:34 1005 29.68 834 24.63 -4.7 23.5 74 -8.6 16.5 0
18:35 1005 29.68 834 24.63 -4.8 23.4 73 -8.9 16 0
18:36 1005 29.68 834 24.63 -4.7 23.5 73 -8.8 16.2 0
18:37 1005 29.68 834 24.63 -4.8 23.4 75 -8.6 16.5 0
18:38 1005 29.68 834 24.63 -4.8 23.3 76 -8.4 16.9 0
18:39 1005 29.68 834 24.63 -4.8 23.3 74 -8.8 16.2 0
18:40 1005 29.68 834 24.63 -4.9 23.2 73 -9.1 15.7 0
18:41 1005 29.68 834 24.63 -4.8 23.3 70 -9.5 14.9 0
18:42 1005 29.68 834 24.63 -4.9 23.3 73 -9 15.8 0
18:43 1005 29.68 834 24.63 -4.9 23.3 73 -9 15.9 0
18:44 1005 29.68 834 24.63 -4.9 23.2 73 -8.9 15.9 0
18:45 1005 29.68 834 24.63 -4.9 23.2 72 -9.1 15.6 0
18:46 1005 29.68 834 24.63 -4.9 23.2 73 -9.1 15.7 0
18:47 1005 29.68 834 24.63 -4.9 23.1 73 -9.1 15.6 0
18:48 1005 29.68 834 24.63 -4.9 23.1 73 -9 15.8 0
18:49 1005 29.68 834 24.63 -4.9 23.1 71 -9.5 14.9 0
18:50 1005 29.68 834 24.63 -4.9 23.2 74 -8.9 16.1 0
18:51 1005 29.68 834 24.63 -4.9 23.1 74 -8.9 16 0
18:52 1005 29.68 834 24.63 -5 23.1 73 -9 15.8 0
18:53 1005 29.68 834 24.63 -4.9 23.2 72 -9.2 15.5 0
18:54 1005 29.68 834 24.63 -4.9 23.2 73 -9.1 15.6 0
18:55 1005 29.68 834 24.63 -4.9 23.2 73 -9.1 15.6 0
18:56 1005 29.68 834 24.63 -4.9 23.2 71 -9.4 15.1 0
18:57 1005 29.68 834 24.63 -4.8 23.3 71 -9.4 15.1 0
18:58 1005 29.68 834 24.63 -4.8 23.3 71 -9.3 15.3 0
18:59 1005 29.68 834 24.63 -4.8 23.3 72 -9.2 15.5 0
19:00 1005 29.68 834 24.63 -4.8 23.3 70 -9.4 15 0
19:01 1005 29.68 834 24.63 -4.9 23.2 70 -9.5 15 0
19:02 1005 29.68 834 24.63 -4.9 23.2 72 -9.2 15.4 0
19:03 1005 29.68 834 24.63 -4.9 23.2 72 -9.2 15.4 0
19:04 1005 29.68 834 24.63 -4.9 23.2 71 -9.3 15.3 0
19:05 1005 29.68 834 24.63 -4.9 23.1 74 -8.9 15.9 0
19:06 1005 29.68 834 24.63 -4.9 23.2 73 -9 15.8 0
19:07 1005 29.68 834 24.63 -4.9 23.1 71 -9.3 15.2 0
19:08 1005 29.68 834 24.63 -4.9 23.1 71 -9.4 15.1 0
19:09 1005 29.68 834 24.63 -5 23.1 70 -9.7 14.5 0
19:10 1005 29.68 834 24.63 -4.9 23.2 68 -9.9 14.3 0
19:11 1005 29.68 834 24.63 -4.9 23.2 69 -9.8 14.4 0
19:12 1005 29.68 835 24.66 -4.9 23.2 64 -10.6 12.9 0
19:13 1005 29.68 835 24.66 -4.8 23.3 66 -10.2 13.7 0
19:14 1005 29.68 835 24.66 -4.9 23.2 65 -10.5 13.2 0
19:15 1005 29.68 835 24.66 -4.8 23.3 66 -10.3 13.5 0
19:16 1005 29.68 835 24.66 -4.9 23.3 67 -10 14 0
19:17 1005 29.68 835 24.66 -4.8 23.3 69 -9.8 14.4 0
19:18 1005 29.68 835 24.66 -4.9 23.2 68 -10 14 0
19:19 1006 29.71 835 24.66 -4.9 23.3 69 -9.6 14.7 0
19:20 1006 29.71 835 24.66 -4.8 23.3 69 -9.6 14.7 0
19:21 1006 29.71 835 24.66 -4.9 23.3 70 -9.5 15 0
19:22 1006 29.71 835 24.66 -4.9 23.2 66 -10.3 13.4 0
19:23 1006 29.71 835 24.66 -4.9 23.3 66 -10.3 13.5 0
19:24 1006 29.71 835 24.66 -4.9 23.3 68 -9.9 14.1 0
19:25 1006 29.71 835 24.66 -4.9 23.2 68 -10 14 0
19:26 1006 29.71 835 24.66 -4.9 23.2 68 -9.9 14.2 0
19:27 1006 29.71 835 24.66 -4.9 23.2 71 -9.5 15 0
19:28 1006 29.71 835 24.66 -5 23.1 71 -9.4 15.1 0
19:29 1006 29.71 835 24.66 -5 23 69 -9.8 14.4 0
19:30 1006 29.71 835 24.66 -5 23 71 -9.5 14.9 0
19:31 1006 29.71 835 24.66 -5.1 22.8 72 -9.4 15.1 0
19:32 1006 29.71 835 24.66 -5.1 22.7 74 -9.1 15.6 0
19:33 1006 29.71 835 24.66 -5.2 22.6 72 -9.5 14.8 0
19:34 1006 29.71 835 24.66 -5.3 22.5 73 -9.4 15.2 0
19:35 1006 29.71 835 24.66 -5.3 22.5 73 -9.4 15 0
19:36 1006 29.71 835 24.66 -5.3 22.4 74 -9.3 15.3 0
19:37 1006 29.71 835 24.66 -5.3 22.4 76 -8.9 15.9 0
19:38 1006 29.71 835 24.66 -5.4 22.3 76 -9 15.9 0
19:39 1006 29.71 835 24.66 -5.4 22.2 76 -9 15.8 0
19:40 1006 29.71 835 24.66 -5.5 22.2 74 -9.3 15.2 0
19:41 1006 29.71 835 24.66 -5.5 22.1 76 -9.1 15.6 0
19:42 1006 29.71 835 24.66 -5.6 21.9 75 -9.3 15.3 0
19:43 1006 29.71 835 24.66 -5.6 21.9 75 -9.3 15.2 0
19:44 1006 29.71 835 24.66 -5.7 21.8 74 -9.5 14.8 0
19:45 1006 29.71 835 24.66 -5.7 21.7 74 -9.6 14.8 0
19:46 1006 29.71 835 24.66 -5.8 21.6 75 -9.5 14.9 0
19:47 1006 29.71 835 24.66 -5.8 21.5 75 -9.6 14.8 0
19:48 1006 29.71 835 24.66 -5.8 21.5 75 -9.6 14.8 0
19:49 1006 29.71 835 24.66 -5.8 21.5 75 -9.6 14.7 0
19:50 1006 29.71 835 24.66 -5.8 21.5 76 -9.5 14.9 0
19:51 1006 29.71 835 24.66 -5.9 21.4 75 -9.6 14.7 0
19:52 1006 29.71 835 24.66 -5.9 21.4 75 -9.7 14.6 0
19:53 1006 29.71 835 24.66 -5.9 21.4 74 -9.8 14.4 0
19:54 1006 29.71 835 24.66 -5.9 21.4 76 -9.5 14.9 0
19:55 1006 29.71 835 24.66 -5.9 21.3 75 -9.7 14.5 0
19:56 1006 29.71 835 24.66 -5.9 21.3 75 -9.8 14.4 0
19:57 1006 29.71 835 24.66 -6 21.2 75 -9.8 14.4 0
19:58 1006 29.71 835 24.66 -6 21.2 75 -9.8 14.3 0
19:59 1006 29.71 835 24.66 -6.1 21.1 76 -9.7 14.6 0
20:00 1006 29.71 835 24.66 -6.1 21.1 74 -10.1 13.9 0
20:01 1006 29.71 835 24.66 -6.2 20.9 75 -9.9 14.3 0
20:02 1006 29.71 835 24.66 -6.2 20.8 75 -9.9 14.1 0
20:03 1006 29.71 835 24.66 -6.2 20.8 73 -10.2 13.6 0
20:04 1006 29.71 835 24.66 -6.3 20.7 74 -10.3 13.5 0
20:05 1006 29.71 835 24.66 -6.3 20.7 73 -10.3 13.5 0
20:06 1006 29.71 835 24.66 -6.3 20.7 72 -10.5 13 0
20:07 1006 29.71 835 24.66 -6.4 20.5 73 -10.4 13.3 0
20:08 1006 29.71 835 24.66 -6.4 20.5 74 -10.2 13.6 0
20:09 1006 29.71 835 24.66 -6.4 20.4 76 -10 14 0
20:10 1006 29.71 835 24.66 -6.4 20.4 76 -10 14 0
20:11 1006 29.71 835 24.66 -6.5 20.3 75 -10.3 13.5 0
20:12 1006 29.71 835 24.66 -6.5 20.3 75 -10.2 13.6 0
20:13 1006 29.71 835 24.66 -6.5 20.3 74 -10.5 13.1 0
20:14 1006 29.71 835 24.66 -6.6 20.2 74 -10.5 13.2 0
20:15 1006 29.71 835 24.66 -6.6 20.2 76 -10.2 13.7 0
20:16 1006 29.71 835 24.66 -6.6 20.2 75 -10.3 13.4 0
20:17 1006 29.71 835 24.66 -6.6 20.1 75 -10.4 13.4 0
20:18 1006 29.71 835 24.66 -6.6 20.1 75 -10.3 13.5 0
20:19 1006 29.71 835 24.66 -6.6 20.1 74 -10.4 13.2 0
20:20 1006 29.71 835 24.66 -6.6 20.1 76 -10.1 13.8 0
20:21 1006 29.71 835 24.66 -6.6 20.1 75 -10.4 13.2 0
20:22 1006 29.71 835 24.66 -6.6 20.1 76 -10.2 13.6 0
20:23 1006 29.71 835 24.66 -6.6 20.1 73 -10.6 12.9 0
20:24 1006 29.71 835 24.66 -6.6 20.1 74 -10.5 13.1 0
20:25 1006 29.71 835 24.66 -6.6 20.1 75 -10.3 13.5 0
20:26 1006 29.71 835 24.66 -6.6 20 72 -10.9 12.3 0
20:27 1006 29.71 835 24.66 -6.6 20.1 74 -10.5 13 0
20:28 1006 29.71 835 24.66 -6.6 20.1 74 -10.5 13 0
20:29 1006 29.71 835 24.66 -6.6 20.1 74 -10.5 13.1 0
20:30 1006 29.71 835 24.66 -6.6 20.1 74 -10.5 13.1 0
20:31 1006 29.71 835 24.66 -6.6 20.1 75 -10.4 13.4 0
20:32 1006 29.71 835 24.66 -6.6 20.1 76 -10.3 13.5 0
20:33 1006 29.71 835 24.66 -6.6 20.1 76 -10.1 13.7 0
20:34 1006 29.71 835 24.66 -6.7 20 74 -10.6 13 0
20:35 1006 29.71 835 24.66 -6.6 20.1 74 -10.5 13.2 0
20:36 1006 29.71 835 24.66 -6.6 20.1 76 -10.2 13.6 0
20:37 1006 29.71 835 24.66 -6.6 20.1 74 -10.6 13 0
20:38 1006 29.71 835 24.66 -6.6 20.1 74 -10.6 13 0
20:39 1006 29.71 836 24.69 -6.6 20.1 74 -10.5 13.1 0
20:40 1006 29.71 836 24.69 -6.6 20 74 -10.5 13.2 0
20:41 1006 29.71 836 24.69 -6.6 20.1 75 -10.3 13.5 0
20:42 1006 29.71 836 24.69 -6.6 20.1 75 -10.3 13.5 0
20:43 1006 29.71 836 24.69 -6.7 20 75 -10.5 13.1 0
20:44 1006 29.71 836 24.69 -6.6 20 74 -10.5 13 0
20:45 1006 29.71 835 24.66 -6.6 20 73 -10.7 12.8 0
20:46 1006 29.71 835 24.66 -6.7 20 74 -10.5 13.1 0
20:47 1006 29.71 836 24.69 -6.6 20 74 -10.5 13.2 0
20:48 1006 29.71 836 24.69 -6.6 20.1 75 -10.4 13.4 0
20:49 1006 29.71 836 24.69 -6.6 20.1 74 -10.5 13.2 0
20:50 1006 29.71 835 24.66 -6.6 20.1 72 -10.8 12.5 0
20:51 1006 29.71 835 24.66 -6.7 20 74 -10.5 13.1 0
20:52 1006 29.71 835 24.66 -6.6 20 75 -10.3 13.4 0
20:53 1006 29.71 836 24.69 -6.6 20.1 76 -10.2 13.6 0
20:54 1006 29.71 836 24.69 -6.7 20 75 -10.4 13.2 0
20:55 1006 29.71 836 24.69 -6.7 20 74 -10.5 13.1 0
20:56 1006 29.71 836 24.69 -6.7 19.9 74 -10.6 12.9 0
20:57 1006 29.71 836 24.69 -6.8 19.8 74 -10.6 12.9 0
20:58 1006 29.71 836 24.69 -6.8 19.8 74 -10.8 12.6 0
20:59 1006 29.71 836 24.69 -6.8 19.8 74 -10.7 12.7 0
21:00 1006 29.71 836 24.69 -6.8 19.7 74 -10.7 12.8 0
21:01 1006 29.71 836 24.69 -6.8 19.8 75 -10.5 13.1 0
21:02 1007 29.74 836 24.69 -6.8 19.7 74 -10.7 12.7 0
21:03 1007 29.74 836 24.69 -6.8 19.7 73 -10.9 12.4 0
21:04 1007 29.74 836 24.69 -6.8 19.7 75 -10.6 13 0
21:05 1007 29.74 836 24.69 -6.8 19.7 75 -10.6 13 0
21:06 1007 29.74 836 24.69 -6.8 19.7 76 -10.4 13.3 0
21:07 1007 29.74 836 24.69 -6.8 19.7 75 -10.6 13 0
21:08 1007 29.74 836 24.69 -6.9 19.7 71 -11.2 11.8 0
21:09 1007 29.74 836 24.69 -6.9 19.6 71 -11.3 11.7 0
21:10 1007 29.74 836 24.69 -6.9 19.5 70 -11.5 11.3 0
21:11 1007 29.74 836 24.69 -6.9 19.5 72 -11.2 11.9 0
21:12 1007 29.74 836 24.69 -7 19.5 72 -11.2 11.9 0
21:13 1007 29.74 836 24.69 -7 19.5 71 -11.3 11.6 0
21:14 1007 29.74 836 24.69 -7 19.4 72 -11.2 11.9 0
21:15 1007 29.74 836 24.69 -7 19.4 73 -11 12.2 0
21:16 1007 29.74 836 24.69 -7 19.4 74 -10.9 12.4 0
21:17 1007 29.74 836 24.69 -7 19.4 73 -11.1 12.1 0
21:18 1007 29.74 836 24.69 -7 19.4 72 -11.2 11.8 0
21:19 1007 29.74 836 24.69 -7 19.4 73 -11 12.1 0
21:20 1007 29.74 836 24.69 -7 19.4 71 -11.3 11.6 0
21:21 1007 29.74 836 24.69 -7 19.4 71 -11.5 11.3 0
21:22 1007 29.74 836 24.69 -7 19.4 72 -11.3 11.7 0
21:23 1007 29.74 836 24.69 -7 19.3 71 -11.5 11.3 0
21:24 1007 29.74 836 24.69 -7 19.3 72 -11.2 11.8 0
21:25 1007 29.74 836 24.69 -7.1 19.3 72 -11.4 11.6 0
21:26 1007 29.74 836 24.69 -7 19.3 73 -11.1 12.1 0
21:27 1007 29.74 836 24.69 -7.1 19.3 73 -11.1 12 0
21:28 1007 29.74 836 24.69 -7.1 19.2 75 -10.8 12.5 0
21:29 1007 29.74 836 24.69 -7.1 19.2 74 -11 12.1 0
21:30 1007 29.74 836 24.69 -7.2 19.1 73 -11.1 12 0
21:31 1007 29.74 836 24.69 -7.2 19.1 73 -11.2 11.8 0
21:32 1007 29.74 836 24.69 -7.2 19 72 -11.5 11.3 0
21:33 1007 29.74 836 24.69 -7.3 18.9 73 -11.3 11.6 0
21:34 1007 29.74 836 24.69 -7.3 18.9 74 -11.2 11.8 0
21:35 1007 29.74 836 24.69 -7.3 18.8 73 -11.3 11.7 0
21:36 1007 29.74 836 24.69 -7.4 18.7 72 -11.6 11.2 0
21:37 1007 29.74 836 24.69 -7.4 18.7 73 -11.4 11.6 0
21:38 1007 29.74 836 24.69 -7.4 18.7 74 -11.3 11.6 0
21:39 1007 29.74 836 24.69 -7.4 18.6 75 -11.2 11.8 0
21:40 1007 29.74 836 24.69 -7.5 18.6 75 -11.2 11.9 0
21:41 1007 29.74 836 24.69 -7.5 18.6 76 -11 12.1 0
21:42 1007 29.74 836 24.69 -7.5 18.5 77 -10.9 12.4 0
21:43 1007 29.74 836 24.69 -7.5 18.5 76 -11 12.3 0
21:44 1007 29.74 836 24.69 -7.6 18.4 76 -11 12.2 0
21:45 1007 29.74 836 24.69 -7.6 18.4 75 -11.2 11.8 0
21:46 1007 29.74 836 24.69 -7.6 18.3 76 -11.2 11.9 0
21:47 1007 29.74 836 24.69 -7.6 18.3 76 -11.2 11.9 0
21:48 1007 29.74 836 24.69 -7.6 18.3 75 -11.2 11.8 0
21:49 1007 29.74 836 24.69 -7.7 18.2 77 -11.1 12 0
21:50 1007 29.74 836 24.69 -7.7 18.1 77 -11.1 12 0
21:51 1007 29.74 836 24.69 -7.7 18.1 77 -11.1 12 0
21:52 1007 29.74 836 24.69 -7.7 18.1 77 -11.1 12 0
21:53 1007 29.74 836 24.69 -7.7 18.1 77 -11.1 12.1 0
21:54 1007 29.74 836 24.69 -7.7 18.1 77 -11.2 11.9 0
21:55 1007 29.74 837 24.72 -7.8 18 76 -11.2 11.8 0
21:56 1007 29.74 837 24.72 -7.8 17.9 76 -11.4 11.5 0
21:57 1007 29.74 837 24.72 -7.8 17.9 76 -11.3 11.7 0
21:58 1007 29.74 837 24.72 -7.8 17.9 78 -11.1 12.1 0
21:59 1007 29.74 837 24.72 -7.9 17.9 77 -11.1 12 0
22:00 1008 29.77 837 24.72 -7.9 17.8 77 -11.3 11.7 0
22:01 1008 29.77 837 24.72 -7.9 17.8 78 -11 12.1 0
22:02 1008 29.77 837 24.72 -7.9 17.7 78 -11.1 12 0
22:03 1008 29.77 837 24.72 -8 17.6 78 -11.3 11.7 0
22:04 1008 29.77 837 24.72 -8.1 17.5 78 -11.3 11.7 0
22:05 1008 29.77 837 24.72 -8.2 17.3 79 -11.3 11.7 0
22:06 1008 29.77 837 24.72 -8.2 17.3 80 -11.1 12.1 0
22:07 1008 29.77 837 24.72 -8.2 17.2 78 -11.4 11.6 0
22:08 1008 29.77 837 24.72 -8.3 17.1 79 -11.3 11.7 0
22:09 1008 29.77 837 24.72 -8.3 17 79 -11.4 11.6 0
22:10 1008 29.77 837 24.72 -8.4 16.9 79 -11.3 11.6 0
22:11 1008 29.77 837 24.72 -8.4 16.8 80 -11.3 11.6 0
22:12 1008 29.77 837 24.72 -8.5 16.7 81 -11.2 11.8 0
22:13 1008 29.77 837 24.72 -8.5 16.7 81 -11.1 11.9 0
22:14 1008 29.77 837 24.72 -8.5 16.6 82 -11.1 11.9 0
22:15 1008 29.77 837 24.72 -8.6 16.6 81 -11.2 11.8 0
22:16 1008 29.77 837 24.72 -8.5 16.6 81 -11.2 11.8 0
22:17 1008 29.77 837 24.72 -8.6 16.6 81 -11.2 11.8 0
22:18 1008 29.77 837 24.72 -8.6 16.6 82 -11.1 12 0
22:19 1008 29.77 837 24.72 -8.6 16.6 82 -11.1 12.1 0
22:20 1008 29.77 837 24.72 -8.5 16.6 83 -11 12.2 0
22:21 1008 29.77 837 24.72 -8.6 16.6 82 -11 12.1 0
22:22 1008 29.77 837 24.72 -8.6 16.6 82 -11.1 12 0
22:23 1008 29.77 837 24.72 -8.6 16.5 82 -11.1 12.1 0
22:24 1008 29.77 837 24.72 -8.6 16.5 83 -11 12.2 0
22:25 1008 29.77 837 24.72 -8.6 16.6 82 -11.1 12 0
22:26 1008 29.77 837 24.72 -8.6 16.5 82 -11.2 11.9 0
22:27 1008 29.77 837 24.72 -8.6 16.5 82 -11.1 12 0
22:28 1008 29.77 837 24.72 -8.6 16.5 83 -11.1 12.1 0
22:29 1008 29.77 837 24.72 -8.6 16.5 83 -11.1 12.1 0
22:30 1008 29.77 837 24.72 -8.7 16.4 83 -11 12.1 0
22:31 1008 29.77 837 24.72 -8.7 16.4 83 -11 12.1 0
22:32 1008 29.77 837 24.72 -8.7 16.4 83 -11.1 12 0
22:33 1008 29.77 837 24.72 -8.7 16.4 83 -11.1 12 0
22:34 1008 29.77 837 24.72 -8.7 16.4 83 -11.1 12 0
22:35 1008 29.77 837 24.72 -8.7 16.4 83 -11.1 12.1 0
22:36 1008 29.77 837 24.72 -8.7 16.4 83 -11.1 12 0
22:37 1008 29.77 837 24.72 -8.7 16.4 82 -11.1 12 0
22:38 1008 29.77 837 24.72 -8.7 16.4 83 -11.1 12.1 0
22:39 1008 29.77 837 24.72 -8.7 16.4 83 -11.1 12.1 0
22:40 1008 29.77 837 24.72 -8.7 16.4 83 -11.1 12.1 0
22:41 1008 29.77 837 24.72 -8.7 16.4 83 -11.1 12 0
22:42 1008 29.77 837 24.72 -8.7 16.4 82 -11.1 11.9 0
22:43 1008 29.77 837 24.72 -8.7 16.4 82 -11.2 11.9 0
22:44 1008 29.77 837 24.72 -8.7 16.4 82 -11.2 11.9 0
22:45 1008 29.77 837 24.72 -8.7 16.4 83 -11.1 12 0
22:46 1008 29.77 837 24.72 -8.7 16.4 82 -11.2 11.8 0
22:47 1008 29.77 838 24.75 -8.7 16.4 83 -11.1 12 0
22:48 1008 29.77 838 24.75 -8.7 16.4 83 -11.1 12.1 0
22:49 1008 29.77 838 24.75 -8.7 16.4 83 -11.1 12.1 0
22:50 1008 29.77 838 24.75 -8.7 16.3 83 -11 12.1 0
22:51 1008 29.77 838 24.75 -8.7 16.4 83 -11.1 12.1 0
22:52 1008 29.77 838 24.75 -8.7 16.3 83 -11.1 12.1 0
22:53 1008 29.77 838 24.75 -8.7 16.3 83 -11 12.1 0
22:54 1008 29.77 838 24.75 -8.7 16.4 84 -11 12.2 0
22:55 1008 29.77 838 24.75 -8.7 16.3 84 -11 12.2 0
22:56 1008 29.77 838 24.75 -8.7 16.3 84 -11 12.2 0
22:57 1008 29.77 838 24.75 -8.7 16.3 84 -11 12.2 0
22:58 1008 29.77 838 24.75 -8.7 16.3 84 -11 12.2 0
22:59 1008 29.77 838 24.75 -8.7 16.3 84 -11 12.2 0
23:00 1008 29.77 838 24.75 -8.8 16.3 83 -11.1 12 0
23:01 1008 29.77 838 24.75 -8.8 16.2 84 -11.1 12 0
23:02 1008 29.77 838 24.75 -8.8 16.2 84 -11 12.1 0
23:03 1008 29.77 838 24.75 -8.8 16.2 84 -11 12.1 0
23:04 1008 29.77 838 24.75 -8.8 16.1 84 -11 12.1 0
23:05 1008 29.77 838 24.75 -8.8 16.1 84 -11 12.1 0
23:06 1008 29.77 838 24.75 -8.8 16.1 84 -11.1 12.1 0
23:07 1008 29.77 838 24.75 -8.9 16 84 -11.1 12 0
23:08 1008 29.77 838 24.75 -8.9 16 84 -11.2 11.9 0
23:09 1008 29.77 838 24.75 -9 15.9 84 -11.2 11.9 0
23:10 1008 29.77 838 24.75 -9 15.8 84 -11.2 11.8 0
23:11 1008 29.77 838 24.75 -9.1 15.7 84 -11.3 11.7 0
23:12 1008 29.77 838 24.75 -9.1 15.7 85 -11.2 11.8 0
23:13 1008 29.77 838 24.75 -9.1 15.6 84 -11.3 11.7 0
23:14 1009 29.8 838 24.75 -9.1 15.6 85 -11.2 11.9 0
23:15 1008 29.77 838 24.75 -9.2 15.5 85 -11.2 11.8 0
23:16 1009 29.8 838 24.75 -9.2 15.5 85 -11.3 11.7 0
23:17 1009 29.8 838 24.75 -9.2 15.4 85 -11.2 11.8 0
23:18 1009 29.8 838 24.75 -9.2 15.4 85 -11.3 11.7 0
23:19 1009 29.8 838 24.75 -9.2 15.4 84 -11.5 11.4 0
23:20 1009 29.8 838 24.75 -9.2 15.4 84 -11.5 11.3 0
23:21 1009 29.8 838 24.75 -9.3 15.3 83 -11.6 11.1 0
23:22 1009 29.8 838 24.75 -9.3 15.3 83 -11.6 11.1 0
23:23 1009 29.8 838 24.75 -9.3 15.3 83 -11.6 11.1 0
23:24 1009 29.8 838 24.75 -9.3 15.3 83 -11.7 11 0
23:25 1009 29.8 838 24.75 -9.3 15.3 83 -11.6 11.1 0
23:26 1009 29.8 838 24.75 -9.3 15.2 83 -11.7 11 0
23:27 1009 29.8 838 24.75 -9.3 15.2 83 -11.6 11.1 0
23:28 1009 29.8 838 24.75 -9.3 15.2 83 -11.6 11.1 0
23:29 1009 29.8 838 24.75 -9.3 15.3 83 -11.6 11.1 0
23:30 1009 29.8 838 24.75 -9.3 15.2 83 -11.7 11 0
23:31 1009 29.8 838 24.75 -9.3 15.3 83 -11.6 11.1 0
23:32 1009 29.8 838 24.75 -9.3 15.2 84 -11.6 11.1 0
23:33 1009 29.8 838 24.75 -9.3 15.3 83 -11.6 11.1 0
23:34 1009 29.8 838 24.75 -9.3 15.2 83 -11.7 10.9 0
23:35 1009 29.8 838 24.75 -9.3 15.2 83 -11.7 10.9 0
23:36 1009 29.8 838 24.75 -9.3 15.3 83 -11.6 11 0
23:37 1009 29.8 838 24.75 -9.3 15.3 83 -11.6 11.1 0
23:38 1009 29.8 838 24.75 -9.3 15.2 83 -11.7 11 0
23:39 1009 29.8 838 24.75 -9.3 15.2 83 -11.7 10.9 0
23:40 1009 29.8 838 24.75 -9.3 15.2 83 -11.8 10.8 0
23:41 1009 29.8 838 24.75 -9.3 15.2 82 -11.8 10.8 0
23:42 1009 29.8 838 24.75 -9.3 15.3 82 -11.8 10.8 0
23:43 1009 29.8 838 24.75 -9.3 15.3 83 -11.7 10.9 0
23:44 1009 29.8 838 24.75 -9.3 15.2 82 -11.8 10.8 0
23:45 1009 29.8 838 24.75 -9.3 15.2 82 -11.8 10.8 0
23:46 1009 29.8 838 24.75 -9.3 15.2 82 -11.8 10.8 0
23:47 1009 29.8 838 24.75 -9.3 15.2 82 -11.8 10.7 0
23:48 1009 29.8 838 24.75 -9.3 15.2 82 -11.8 10.8 0
23:49 1009 29.8 838 24.75 -9.3 15.2 82 -11.9 10.7 0
23:50 1009 29.8 838 24.75 -9.3 15.2 82 -11.9 10.6 0
23:51 1009 29.8 838 24.75 -9.3 15.2 82 -11.9 10.5 0
23:52 1009 29.8 838 24.75 -9.3 15.2 81 -11.9 10.5 0
23:53 1009 29.8 838 24.75 -9.3 15.2 81 -11.9 10.5 0
23:54 1009 29.8 838 24.75 -9.3 15.2 81 -12 10.5 0
23:55 1009 29.8 838 24.75 -9.3 15.2 82 -11.9 10.5 0
23:56 1009 29.8 838 24.75 -9.3 15.2 82 -11.9 10.5 0
23:57 1009 29.8 838 24.75 -9.3 15.2 81 -12 10.5 0
23:58 1009 29.8 838 24.75 -9.3 15.2 81 -12 10.5 0
23:59 1009 29.8 838 24.75 -9.3 15.2 81 -11.9 10.5 0
24:00 1009 29.8 838 24.75 -9.3 15.2 82 -11.9 10.6 0